<?xml version="1.0" encoding="UTF-8" standalone="no" ?>
<gpx xmlns="http://www.topografix.com/GPX/1/1" xmlns:xsi="http://www.w3.org/2001/XMLSchema-instance" xsi:schemaLocation="http://www.topografix.com/GPX/1/1 http://www.topografix.com/GPX/1/1/gpx.xsd" version="1.1" creator="VisuGPX - https://www.visugpx.com">
  <metadata>
    <name>CRÊTES DE CORNUDERE</name>
    <desc><![CDATA[Toujours aussi belles crêtes et sans aucune difficulté technique.]]></desc>
  </metadata>
  <trk>
    <name><![CDATA[20181111203640-BfFvA]]></name>
    <trkseg>
      <trkpt lat="42.94495" lon="0.8545">
        <ele>1071.05</ele>
        <time>2018-11-11T08:42:10Z</time>
      </trkpt>
      <trkpt lat="42.94493" lon="0.85449">
        <ele>1068.64</ele>
        <time>2018-11-11T08:43:30Z</time>
      </trkpt>
      <trkpt lat="42.94496" lon="0.85451">
        <ele>1068.16</ele>
        <time>2018-11-11T08:44:57Z</time>
      </trkpt>
      <trkpt lat="42.94494" lon="0.85438">
        <ele>1069.12</ele>
        <time>2018-11-11T08:46:13Z</time>
      </trkpt>
      <trkpt lat="42.94492" lon="0.85425">
        <ele>1069.6</ele>
        <time>2018-11-11T08:46:26Z</time>
      </trkpt>
      <trkpt lat="42.94491" lon="0.85411">
        <ele>1070.08</ele>
        <time>2018-11-11T08:46:38Z</time>
      </trkpt>
      <trkpt lat="42.94487" lon="0.85398">
        <ele>1071.05</ele>
        <time>2018-11-11T08:46:49Z</time>
      </trkpt>
      <trkpt lat="42.94489" lon="0.85385">
        <ele>1071.53</ele>
        <time>2018-11-11T08:47:01Z</time>
      </trkpt>
      <trkpt lat="42.94498" lon="0.85385">
        <ele>1072.01</ele>
        <time>2018-11-11T08:47:14Z</time>
      </trkpt>
      <trkpt lat="42.9451" lon="0.8538">
        <ele>1073.93</ele>
        <time>2018-11-11T08:47:29Z</time>
      </trkpt>
      <trkpt lat="42.94521" lon="0.85377">
        <ele>1075.37</ele>
        <time>2018-11-11T08:47:43Z</time>
      </trkpt>
      <trkpt lat="42.94531" lon="0.85378">
        <ele>1077.29</ele>
        <time>2018-11-11T08:47:55Z</time>
      </trkpt>
      <trkpt lat="42.94541" lon="0.8538">
        <ele>1078.74</ele>
        <time>2018-11-11T08:48:08Z</time>
      </trkpt>
      <trkpt lat="42.94551" lon="0.85379">
        <ele>1081.14</ele>
        <time>2018-11-11T08:48:22Z</time>
      </trkpt>
      <trkpt lat="42.94562" lon="0.85378">
        <ele>1083.54</ele>
        <time>2018-11-11T08:48:37Z</time>
      </trkpt>
      <trkpt lat="42.94574" lon="0.8538">
        <ele>1085.47</ele>
        <time>2018-11-11T08:48:54Z</time>
      </trkpt>
      <trkpt lat="42.94586" lon="0.8538">
        <ele>1087.39</ele>
        <time>2018-11-11T08:49:12Z</time>
      </trkpt>
      <trkpt lat="42.94596" lon="0.85381">
        <ele>1090.27</ele>
        <time>2018-11-11T08:49:31Z</time>
      </trkpt>
      <trkpt lat="42.94607" lon="0.85385">
        <ele>1093.16</ele>
        <time>2018-11-11T08:49:49Z</time>
      </trkpt>
      <trkpt lat="42.94622" lon="0.85386">
        <ele>1096.52</ele>
        <time>2018-11-11T08:50:14Z</time>
      </trkpt>
      <trkpt lat="42.94638" lon="0.85394">
        <ele>1098.92</ele>
        <time>2018-11-11T08:50:41Z</time>
      </trkpt>
      <trkpt lat="42.9465" lon="0.85406">
        <ele>1102.29</ele>
        <time>2018-11-11T08:50:57Z</time>
      </trkpt>
      <trkpt lat="42.94663" lon="0.85409">
        <ele>1105.17</ele>
        <time>2018-11-11T08:51:16Z</time>
      </trkpt>
      <trkpt lat="42.94664" lon="0.85399">
        <ele>1107.1</ele>
        <time>2018-11-11T08:51:33Z</time>
      </trkpt>
      <trkpt lat="42.94676" lon="0.85395">
        <ele>1110.94</ele>
        <time>2018-11-11T08:51:51Z</time>
      </trkpt>
      <trkpt lat="42.94682" lon="0.85388">
        <ele>1114.31</ele>
        <time>2018-11-11T08:52:12Z</time>
      </trkpt>
      <trkpt lat="42.94692" lon="0.85383">
        <ele>1117.67</ele>
        <time>2018-11-11T08:52:36Z</time>
      </trkpt>
      <trkpt lat="42.94701" lon="0.85374">
        <ele>1121.03</ele>
        <time>2018-11-11T08:52:53Z</time>
      </trkpt>
      <trkpt lat="42.9471" lon="0.85368">
        <ele>1124.4</ele>
        <time>2018-11-11T08:53:15Z</time>
      </trkpt>
      <trkpt lat="42.94715" lon="0.85357">
        <ele>1128.24</ele>
        <time>2018-11-11T08:53:41Z</time>
      </trkpt>
      <trkpt lat="42.94724" lon="0.85348">
        <ele>1132.09</ele>
        <time>2018-11-11T08:54:03Z</time>
      </trkpt>
      <trkpt lat="42.94734" lon="0.85338">
        <ele>1135.45</ele>
        <time>2018-11-11T08:54:31Z</time>
      </trkpt>
      <trkpt lat="42.94743" lon="0.85337">
        <ele>1139.3</ele>
        <time>2018-11-11T08:54:55Z</time>
      </trkpt>
      <trkpt lat="42.9475" lon="0.85327">
        <ele>1142.18</ele>
        <time>2018-11-11T08:55:17Z</time>
      </trkpt>
      <trkpt lat="42.94754" lon="0.85314">
        <ele>1144.59</ele>
        <time>2018-11-11T08:55:36Z</time>
      </trkpt>
      <trkpt lat="42.94758" lon="0.85299">
        <ele>1147.95</ele>
        <time>2018-11-11T08:55:58Z</time>
      </trkpt>
      <trkpt lat="42.94762" lon="0.85287">
        <ele>1151.32</ele>
        <time>2018-11-11T08:56:22Z</time>
      </trkpt>
      <trkpt lat="42.94781" lon="0.85272">
        <ele>1157.56</ele>
        <time>2018-11-11T08:57:02Z</time>
      </trkpt>
      <trkpt lat="42.94782" lon="0.85254">
        <ele>1162.37</ele>
        <time>2018-11-11T08:57:35Z</time>
      </trkpt>
      <trkpt lat="42.94795" lon="0.85243">
        <ele>1166.7</ele>
        <time>2018-11-11T08:58:06Z</time>
      </trkpt>
      <trkpt lat="42.94802" lon="0.85221">
        <ele>1171.02</ele>
        <time>2018-11-11T08:58:41Z</time>
      </trkpt>
      <trkpt lat="42.94812" lon="0.85205">
        <ele>1176.31</ele>
        <time>2018-11-11T08:59:13Z</time>
      </trkpt>
      <trkpt lat="42.94826" lon="0.85192">
        <ele>1179.67</ele>
        <time>2018-11-11T08:59:38Z</time>
      </trkpt>
      <trkpt lat="42.94836" lon="0.85174">
        <ele>1184.48</ele>
        <time>2018-11-11T09:00:10Z</time>
      </trkpt>
      <trkpt lat="42.94849" lon="0.85162">
        <ele>1187.85</ele>
        <time>2018-11-11T09:00:35Z</time>
      </trkpt>
      <trkpt lat="42.9486" lon="0.85151">
        <ele>1190.73</ele>
        <time>2018-11-11T09:01:00Z</time>
      </trkpt>
      <trkpt lat="42.94872" lon="0.85148">
        <ele>1193.13</ele>
        <time>2018-11-11T09:01:22Z</time>
      </trkpt>
      <trkpt lat="42.94885" lon="0.85145">
        <ele>1195.06</ele>
        <time>2018-11-11T09:01:41Z</time>
      </trkpt>
      <trkpt lat="42.94897" lon="0.8514">
        <ele>1197.94</ele>
        <time>2018-11-11T09:02:02Z</time>
      </trkpt>
      <trkpt lat="42.94909" lon="0.85139">
        <ele>1201.3</ele>
        <time>2018-11-11T09:02:26Z</time>
      </trkpt>
      <trkpt lat="42.94919" lon="0.85135">
        <ele>1204.19</ele>
        <time>2018-11-11T09:02:45Z</time>
      </trkpt>
      <trkpt lat="42.94932" lon="0.85132">
        <ele>1206.59</ele>
        <time>2018-11-11T09:03:05Z</time>
      </trkpt>
      <trkpt lat="42.94947" lon="0.85134">
        <ele>1209</ele>
        <time>2018-11-11T09:03:26Z</time>
      </trkpt>
      <trkpt lat="42.94959" lon="0.85133">
        <ele>1210.92</ele>
        <time>2018-11-11T09:03:43Z</time>
      </trkpt>
      <trkpt lat="42.94961" lon="0.85148">
        <ele>1213.8</ele>
        <time>2018-11-11T09:04:03Z</time>
      </trkpt>
      <trkpt lat="42.94959" lon="0.85163">
        <ele>1217.17</ele>
        <time>2018-11-11T09:04:25Z</time>
      </trkpt>
      <trkpt lat="42.94953" lon="0.85176">
        <ele>1220.53</ele>
        <time>2018-11-11T09:04:44Z</time>
      </trkpt>
      <trkpt lat="42.94948" lon="0.85187">
        <ele>1221.97</ele>
        <time>2018-11-11T09:05:00Z</time>
      </trkpt>
      <trkpt lat="42.94955" lon="0.85181">
        <ele>1222.93</ele>
        <time>2018-11-11T09:05:18Z</time>
      </trkpt>
      <trkpt lat="42.94964" lon="0.85176">
        <ele>1223.9</ele>
        <time>2018-11-11T09:05:38Z</time>
      </trkpt>
      <trkpt lat="42.94972" lon="0.85168">
        <ele>1224.86</ele>
        <time>2018-11-11T09:05:51Z</time>
      </trkpt>
      <trkpt lat="42.94979" lon="0.85158">
        <ele>1225.82</ele>
        <time>2018-11-11T09:06:04Z</time>
      </trkpt>
      <trkpt lat="42.94986" lon="0.85146">
        <ele>1227.74</ele>
        <time>2018-11-11T09:06:18Z</time>
      </trkpt>
      <trkpt lat="42.94994" lon="0.85134">
        <ele>1228.22</ele>
        <time>2018-11-11T09:06:31Z</time>
      </trkpt>
      <trkpt lat="42.94998" lon="0.85122">
        <ele>1229.66</ele>
        <time>2018-11-11T09:06:44Z</time>
      </trkpt>
      <trkpt lat="42.95004" lon="0.85109">
        <ele>1231.11</ele>
        <time>2018-11-11T09:06:57Z</time>
      </trkpt>
      <trkpt lat="42.95008" lon="0.85096">
        <ele>1232.55</ele>
        <time>2018-11-11T09:07:10Z</time>
      </trkpt>
      <trkpt lat="42.9501" lon="0.85083">
        <ele>1233.51</ele>
        <time>2018-11-11T09:07:22Z</time>
      </trkpt>
      <trkpt lat="42.95013" lon="0.85069">
        <ele>1234.47</ele>
        <time>2018-11-11T09:07:34Z</time>
      </trkpt>
      <trkpt lat="42.95015" lon="0.85056">
        <ele>1236.39</ele>
        <time>2018-11-11T09:07:46Z</time>
      </trkpt>
      <trkpt lat="42.95022" lon="0.85055">
        <ele>1237.35</ele>
        <time>2018-11-11T09:08:00Z</time>
      </trkpt>
      <trkpt lat="42.95027" lon="0.85069">
        <ele>1240.24</ele>
        <time>2018-11-11T09:08:26Z</time>
      </trkpt>
      <trkpt lat="42.95029" lon="0.85082">
        <ele>1241.68</ele>
        <time>2018-11-11T09:08:44Z</time>
      </trkpt>
      <trkpt lat="42.95028" lon="0.85097">
        <ele>1243.12</ele>
        <time>2018-11-11T09:09:04Z</time>
      </trkpt>
      <trkpt lat="42.9503" lon="0.8511">
        <ele>1245.04</ele>
        <time>2018-11-11T09:09:21Z</time>
      </trkpt>
      <trkpt lat="42.95034" lon="0.85122">
        <ele>1247.93</ele>
        <time>2018-11-11T09:09:38Z</time>
      </trkpt>
      <trkpt lat="42.95036" lon="0.85138">
        <ele>1251.77</ele>
        <time>2018-11-11T09:10:03Z</time>
      </trkpt>
      <trkpt lat="42.95036" lon="0.85157">
        <ele>1255.62</ele>
        <time>2018-11-11T09:10:31Z</time>
      </trkpt>
      <trkpt lat="42.95042" lon="0.85177">
        <ele>1258.02</ele>
        <time>2018-11-11T09:10:52Z</time>
      </trkpt>
      <trkpt lat="42.95041" lon="0.85199">
        <ele>1262.35</ele>
        <time>2018-11-11T09:11:27Z</time>
      </trkpt>
      <trkpt lat="42.95042" lon="0.85208">
        <ele>1265.71</ele>
        <time>2018-11-11T09:11:47Z</time>
      </trkpt>
      <trkpt lat="42.95045" lon="0.8519">
        <ele>1268.12</ele>
        <time>2018-11-11T09:12:12Z</time>
      </trkpt>
      <trkpt lat="42.95055" lon="0.85177">
        <ele>1270.52</ele>
        <time>2018-11-11T09:12:30Z</time>
      </trkpt>
      <trkpt lat="42.95062" lon="0.85163">
        <ele>1271</ele>
        <time>2018-11-11T09:12:48Z</time>
      </trkpt>
      <trkpt lat="42.95068" lon="0.85148">
        <ele>1271.48</ele>
        <time>2018-11-11T09:13:02Z</time>
      </trkpt>
      <trkpt lat="42.95075" lon="0.85134">
        <ele>1272.92</ele>
        <time>2018-11-11T09:13:16Z</time>
      </trkpt>
      <trkpt lat="42.9508" lon="0.8512">
        <ele>1274.36</ele>
        <time>2018-11-11T09:13:29Z</time>
      </trkpt>
      <trkpt lat="42.95088" lon="0.85109">
        <ele>1275.33</ele>
        <time>2018-11-11T09:13:42Z</time>
      </trkpt>
      <trkpt lat="42.95091" lon="0.85094">
        <ele>1276.77</ele>
        <time>2018-11-11T09:13:57Z</time>
      </trkpt>
      <trkpt lat="42.9509" lon="0.85082">
        <ele>1280.13</ele>
        <time>2018-11-11T09:14:17Z</time>
      </trkpt>
      <trkpt lat="42.95092" lon="0.85065">
        <ele>1282.54</ele>
        <time>2018-11-11T09:14:47Z</time>
      </trkpt>
      <trkpt lat="42.95094" lon="0.85051">
        <ele>1285.42</ele>
        <time>2018-11-11T09:15:03Z</time>
      </trkpt>
      <trkpt lat="42.95098" lon="0.85048">
        <ele>1285.9</ele>
        <time>2018-11-11T09:15:24Z</time>
      </trkpt>
      <trkpt lat="42.95097" lon="0.85029">
        <ele>1289.27</ele>
        <time>2018-11-11T09:15:43Z</time>
      </trkpt>
      <trkpt lat="42.95095" lon="0.85015">
        <ele>1291.19</ele>
        <time>2018-11-11T09:15:57Z</time>
      </trkpt>
      <trkpt lat="42.95099" lon="0.84998">
        <ele>1294.55</ele>
        <time>2018-11-11T09:16:19Z</time>
      </trkpt>
      <trkpt lat="42.951" lon="0.84987">
        <ele>1295.99</ele>
        <time>2018-11-11T09:16:33Z</time>
      </trkpt>
      <trkpt lat="42.95104" lon="0.8497">
        <ele>1297.92</ele>
        <time>2018-11-11T09:16:49Z</time>
      </trkpt>
      <trkpt lat="42.95109" lon="0.84953">
        <ele>1299.36</ele>
        <time>2018-11-11T09:17:06Z</time>
      </trkpt>
      <trkpt lat="42.95113" lon="0.84939">
        <ele>1299.84</ele>
        <time>2018-11-11T09:17:23Z</time>
      </trkpt>
      <trkpt lat="42.95111" lon="0.84925">
        <ele>1302.24</ele>
        <time>2018-11-11T09:17:39Z</time>
      </trkpt>
      <trkpt lat="42.95115" lon="0.84911">
        <ele>1304.65</ele>
        <time>2018-11-11T09:17:59Z</time>
      </trkpt>
      <trkpt lat="42.95118" lon="0.84896">
        <ele>1305.13</ele>
        <time>2018-11-11T09:18:14Z</time>
      </trkpt>
      <trkpt lat="42.95122" lon="0.84882">
        <ele>1305.61</ele>
        <time>2018-11-11T09:18:30Z</time>
      </trkpt>
      <trkpt lat="42.95133" lon="0.84866">
        <ele>1308.01</ele>
        <time>2018-11-11T09:18:47Z</time>
      </trkpt>
      <trkpt lat="42.95139" lon="0.84851">
        <ele>1310.41</ele>
        <time>2018-11-11T09:19:05Z</time>
      </trkpt>
      <trkpt lat="42.95147" lon="0.84838">
        <ele>1313.3</ele>
        <time>2018-11-11T09:19:24Z</time>
      </trkpt>
      <trkpt lat="42.95156" lon="0.84826">
        <ele>1317.14</ele>
        <time>2018-11-11T09:19:49Z</time>
      </trkpt>
      <trkpt lat="42.95163" lon="0.84814">
        <ele>1321.95</ele>
        <time>2018-11-11T09:20:17Z</time>
      </trkpt>
      <trkpt lat="42.95176" lon="0.84808">
        <ele>1324.83</ele>
        <time>2018-11-11T09:20:36Z</time>
      </trkpt>
      <trkpt lat="42.95185" lon="0.84798">
        <ele>1328.2</ele>
        <time>2018-11-11T09:21:01Z</time>
      </trkpt>
      <trkpt lat="42.95197" lon="0.84789">
        <ele>1331.08</ele>
        <time>2018-11-11T09:21:22Z</time>
      </trkpt>
      <trkpt lat="42.95207" lon="0.84781">
        <ele>1333.97</ele>
        <time>2018-11-11T09:21:44Z</time>
      </trkpt>
      <trkpt lat="42.95222" lon="0.8477">
        <ele>1335.89</ele>
        <time>2018-11-11T09:22:06Z</time>
      </trkpt>
      <trkpt lat="42.95233" lon="0.84763">
        <ele>1337.33</ele>
        <time>2018-11-11T09:22:26Z</time>
      </trkpt>
      <trkpt lat="42.95244" lon="0.84757">
        <ele>1339.73</ele>
        <time>2018-11-11T09:22:42Z</time>
      </trkpt>
      <trkpt lat="42.95262" lon="0.84749">
        <ele>1340.7</ele>
        <time>2018-11-11T09:23:00Z</time>
      </trkpt>
      <trkpt lat="42.95273" lon="0.8475">
        <ele>1342.14</ele>
        <time>2018-11-11T09:23:15Z</time>
      </trkpt>
      <trkpt lat="42.95283" lon="0.84752">
        <ele>1345.5</ele>
        <time>2018-11-11T09:23:33Z</time>
      </trkpt>
      <trkpt lat="42.9529" lon="0.84752">
        <ele>1348.39</ele>
        <time>2018-11-11T09:23:54Z</time>
      </trkpt>
      <trkpt lat="42.953" lon="0.84755">
        <ele>1351.27</ele>
        <time>2018-11-11T09:24:19Z</time>
      </trkpt>
      <trkpt lat="42.9531" lon="0.84766">
        <ele>1354.63</ele>
        <time>2018-11-11T09:24:42Z</time>
      </trkpt>
      <trkpt lat="42.95323" lon="0.8477">
        <ele>1358.96</ele>
        <time>2018-11-11T09:25:11Z</time>
      </trkpt>
      <trkpt lat="42.95337" lon="0.8478">
        <ele>1363.77</ele>
        <time>2018-11-11T09:25:41Z</time>
      </trkpt>
      <trkpt lat="42.95346" lon="0.84788">
        <ele>1367.13</ele>
        <time>2018-11-11T09:26:00Z</time>
      </trkpt>
      <trkpt lat="42.95356" lon="0.84791">
        <ele>1372.9</ele>
        <time>2018-11-11T09:26:35Z</time>
      </trkpt>
      <trkpt lat="42.95366" lon="0.84797">
        <ele>1378.19</ele>
        <time>2018-11-11T09:27:10Z</time>
      </trkpt>
      <trkpt lat="42.95373" lon="0.84808">
        <ele>1381.55</ele>
        <time>2018-11-11T09:27:34Z</time>
      </trkpt>
      <trkpt lat="42.95382" lon="0.84823">
        <ele>1387.8</ele>
        <time>2018-11-11T09:28:11Z</time>
      </trkpt>
      <trkpt lat="42.95389" lon="0.8483">
        <ele>1391.65</ele>
        <time>2018-11-11T09:28:32Z</time>
      </trkpt>
      <trkpt lat="42.95395" lon="0.84837">
        <ele>1394.53</ele>
        <time>2018-11-11T09:29:02Z</time>
      </trkpt>
      <trkpt lat="42.95405" lon="0.84839">
        <ele>1397.89</ele>
        <time>2018-11-11T09:29:24Z</time>
      </trkpt>
      <trkpt lat="42.95416" lon="0.84843">
        <ele>1402.7</ele>
        <time>2018-11-11T09:29:52Z</time>
      </trkpt>
      <trkpt lat="42.95425" lon="0.84853">
        <ele>1405.1</ele>
        <time>2018-11-11T09:30:08Z</time>
      </trkpt>
      <trkpt lat="42.95432" lon="0.84857">
        <ele>1406.55</ele>
        <time>2018-11-11T09:30:21Z</time>
      </trkpt>
      <trkpt lat="42.95438" lon="0.84859">
        <ele>1407.99</ele>
        <time>2018-11-11T09:30:33Z</time>
      </trkpt>
      <trkpt lat="42.95445" lon="0.84861">
        <ele>1410.39</ele>
        <time>2018-11-11T09:30:46Z</time>
      </trkpt>
      <trkpt lat="42.95454" lon="0.84865">
        <ele>1411.83</ele>
        <time>2018-11-11T09:30:59Z</time>
      </trkpt>
      <trkpt lat="42.95463" lon="0.8487">
        <ele>1412.79</ele>
        <time>2018-11-11T09:31:12Z</time>
      </trkpt>
      <trkpt lat="42.9547" lon="0.84874">
        <ele>1414.72</ele>
        <time>2018-11-11T09:31:25Z</time>
      </trkpt>
      <trkpt lat="42.9548" lon="0.84874">
        <ele>1417.12</ele>
        <time>2018-11-11T09:31:44Z</time>
      </trkpt>
      <trkpt lat="42.95489" lon="0.84877">
        <ele>1419.52</ele>
        <time>2018-11-11T09:31:58Z</time>
      </trkpt>
      <trkpt lat="42.95497" lon="0.84876">
        <ele>1421.93</ele>
        <time>2018-11-11T09:32:16Z</time>
      </trkpt>
      <trkpt lat="42.95506" lon="0.84878">
        <ele>1422.41</ele>
        <time>2018-11-11T09:32:33Z</time>
      </trkpt>
      <trkpt lat="42.95515" lon="0.84877">
        <ele>1424.33</ele>
        <time>2018-11-11T09:32:49Z</time>
      </trkpt>
      <trkpt lat="42.95524" lon="0.84876">
        <ele>1426.25</ele>
        <time>2018-11-11T09:33:05Z</time>
      </trkpt>
      <trkpt lat="42.95532" lon="0.84873">
        <ele>1427.7</ele>
        <time>2018-11-11T09:33:20Z</time>
      </trkpt>
      <trkpt lat="42.9554" lon="0.84869">
        <ele>1430.58</ele>
        <time>2018-11-11T09:33:44Z</time>
      </trkpt>
      <trkpt lat="42.95546" lon="0.84865">
        <ele>1433.46</ele>
        <time>2018-11-11T09:34:26Z</time>
      </trkpt>
      <trkpt lat="42.95551" lon="0.84862">
        <ele>1435.39</ele>
        <time>2018-11-11T09:34:43Z</time>
      </trkpt>
      <trkpt lat="42.95558" lon="0.84854">
        <ele>1439.23</ele>
        <time>2018-11-11T09:35:12Z</time>
      </trkpt>
      <trkpt lat="42.95566" lon="0.84854">
        <ele>1441.63</ele>
        <time>2018-11-11T09:35:30Z</time>
      </trkpt>
      <trkpt lat="42.95575" lon="0.84856">
        <ele>1445.48</ele>
        <time>2018-11-11T09:35:51Z</time>
      </trkpt>
      <trkpt lat="42.9558" lon="0.84857">
        <ele>1448.84</ele>
        <time>2018-11-11T09:36:09Z</time>
      </trkpt>
      <trkpt lat="42.95587" lon="0.84867">
        <ele>1451.73</ele>
        <time>2018-11-11T09:36:26Z</time>
      </trkpt>
      <trkpt lat="42.95596" lon="0.84876">
        <ele>1454.61</ele>
        <time>2018-11-11T09:36:42Z</time>
      </trkpt>
      <trkpt lat="42.95604" lon="0.84878">
        <ele>1458.46</ele>
        <time>2018-11-11T09:37:00Z</time>
      </trkpt>
      <trkpt lat="42.95609" lon="0.84876">
        <ele>1461.82</ele>
        <time>2018-11-11T09:37:22Z</time>
      </trkpt>
      <trkpt lat="42.95611" lon="0.84873">
        <ele>1463.74</ele>
        <time>2018-11-11T09:38:05Z</time>
      </trkpt>
      <trkpt lat="42.95624" lon="0.84871">
        <ele>1466.63</ele>
        <time>2018-11-11T09:38:28Z</time>
      </trkpt>
      <trkpt lat="42.95636" lon="0.84871">
        <ele>1469.03</ele>
        <time>2018-11-11T09:38:45Z</time>
      </trkpt>
      <trkpt lat="42.95647" lon="0.84875">
        <ele>1471.44</ele>
        <time>2018-11-11T09:39:06Z</time>
      </trkpt>
      <trkpt lat="42.95645" lon="0.84879">
        <ele>1471.92</ele>
        <time>2018-11-11T09:40:25Z</time>
      </trkpt>
      <trkpt lat="42.95648" lon="0.84871">
        <ele>1472.4</ele>
        <time>2018-11-11T09:43:31Z</time>
      </trkpt>
      <trkpt lat="42.95647" lon="0.84875">
        <ele>1471.92</ele>
        <time>2018-11-11T09:48:08Z</time>
      </trkpt>
      <trkpt lat="42.95649" lon="0.84887">
        <ele>1473.84</ele>
        <time>2018-11-11T09:48:27Z</time>
      </trkpt>
      <trkpt lat="42.95645" lon="0.84897">
        <ele>1475.76</ele>
        <time>2018-11-11T09:48:45Z</time>
      </trkpt>
      <trkpt lat="42.95639" lon="0.84906">
        <ele>1479.13</ele>
        <time>2018-11-11T09:49:02Z</time>
      </trkpt>
      <trkpt lat="42.95639" lon="0.84914">
        <ele>1482.49</ele>
        <time>2018-11-11T09:49:20Z</time>
      </trkpt>
      <trkpt lat="42.95638" lon="0.84925">
        <ele>1485.37</ele>
        <time>2018-11-11T09:49:39Z</time>
      </trkpt>
      <trkpt lat="42.95634" lon="0.84939">
        <ele>1487.78</ele>
        <time>2018-11-11T09:49:52Z</time>
      </trkpt>
      <trkpt lat="42.95632" lon="0.84951">
        <ele>1488.26</ele>
        <time>2018-11-11T09:50:05Z</time>
      </trkpt>
      <trkpt lat="42.9563" lon="0.84964">
        <ele>1486.34</ele>
        <time>2018-11-11T09:50:32Z</time>
      </trkpt>
      <trkpt lat="42.95629" lon="0.84973">
        <ele>1485.85</ele>
        <time>2018-11-11T09:51:00Z</time>
      </trkpt>
      <trkpt lat="42.95628" lon="0.84987">
        <ele>1485.85</ele>
        <time>2018-11-11T09:51:10Z</time>
      </trkpt>
      <trkpt lat="42.95626" lon="0.84999">
        <ele>1485.37</ele>
        <time>2018-11-11T09:51:19Z</time>
      </trkpt>
      <trkpt lat="42.95622" lon="0.85008">
        <ele>1484.89</ele>
        <time>2018-11-11T09:51:27Z</time>
      </trkpt>
      <trkpt lat="42.95619" lon="0.85018">
        <ele>1484.89</ele>
        <time>2018-11-11T09:51:36Z</time>
      </trkpt>
      <trkpt lat="42.95614" lon="0.85031">
        <ele>1484.89</ele>
        <time>2018-11-11T09:51:46Z</time>
      </trkpt>
      <trkpt lat="42.95613" lon="0.85047">
        <ele>1486.34</ele>
        <time>2018-11-11T09:51:56Z</time>
      </trkpt>
      <trkpt lat="42.9561" lon="0.85058">
        <ele>1486.34</ele>
        <time>2018-11-11T09:52:06Z</time>
      </trkpt>
      <trkpt lat="42.95607" lon="0.85069">
        <ele>1486.34</ele>
        <time>2018-11-11T09:52:24Z</time>
      </trkpt>
      <trkpt lat="42.95602" lon="0.8508">
        <ele>1486.34</ele>
        <time>2018-11-11T09:52:35Z</time>
      </trkpt>
      <trkpt lat="42.95595" lon="0.85091">
        <ele>1487.3</ele>
        <time>2018-11-11T09:52:46Z</time>
      </trkpt>
      <trkpt lat="42.95591" lon="0.85102">
        <ele>1488.74</ele>
        <time>2018-11-11T09:52:57Z</time>
      </trkpt>
      <trkpt lat="42.95588" lon="0.85115">
        <ele>1490.18</ele>
        <time>2018-11-11T09:53:08Z</time>
      </trkpt>
      <trkpt lat="42.95589" lon="0.85127">
        <ele>1489.22</ele>
        <time>2018-11-11T09:53:18Z</time>
      </trkpt>
      <trkpt lat="42.95588" lon="0.8514">
        <ele>1488.74</ele>
        <time>2018-11-11T09:53:27Z</time>
      </trkpt>
      <trkpt lat="42.95578" lon="0.85145">
        <ele>1491.14</ele>
        <time>2018-11-11T09:53:38Z</time>
      </trkpt>
      <trkpt lat="42.95569" lon="0.8515">
        <ele>1493.55</ele>
        <time>2018-11-11T09:53:51Z</time>
      </trkpt>
      <trkpt lat="42.95563" lon="0.85154">
        <ele>1497.39</ele>
        <time>2018-11-11T09:54:11Z</time>
      </trkpt>
      <trkpt lat="42.95569" lon="0.85166">
        <ele>1502.68</ele>
        <time>2018-11-11T09:54:37Z</time>
      </trkpt>
      <trkpt lat="42.95575" lon="0.85175">
        <ele>1504.12</ele>
        <time>2018-11-11T09:54:47Z</time>
      </trkpt>
      <trkpt lat="42.95582" lon="0.8518">
        <ele>1507.48</ele>
        <time>2018-11-11T09:55:03Z</time>
      </trkpt>
      <trkpt lat="42.95577" lon="0.85187">
        <ele>1509.41</ele>
        <time>2018-11-11T09:56:08Z</time>
      </trkpt>
      <trkpt lat="42.95571" lon="0.85194">
        <ele>1510.37</ele>
        <time>2018-11-11T09:56:19Z</time>
      </trkpt>
      <trkpt lat="42.95569" lon="0.85204">
        <ele>1511.81</ele>
        <time>2018-11-11T09:56:55Z</time>
      </trkpt>
      <trkpt lat="42.95567" lon="0.85217">
        <ele>1512.77</ele>
        <time>2018-11-11T09:57:08Z</time>
      </trkpt>
      <trkpt lat="42.95566" lon="0.8523">
        <ele>1514.21</ele>
        <time>2018-11-11T09:57:20Z</time>
      </trkpt>
      <trkpt lat="42.95564" lon="0.85242">
        <ele>1514.69</ele>
        <time>2018-11-11T09:57:32Z</time>
      </trkpt>
      <trkpt lat="42.95568" lon="0.85253">
        <ele>1516.14</ele>
        <time>2018-11-11T09:57:43Z</time>
      </trkpt>
      <trkpt lat="42.95571" lon="0.85265">
        <ele>1518.06</ele>
        <time>2018-11-11T09:57:55Z</time>
      </trkpt>
      <trkpt lat="42.9557" lon="0.85278">
        <ele>1519.5</ele>
        <time>2018-11-11T09:58:07Z</time>
      </trkpt>
      <trkpt lat="42.95571" lon="0.8529">
        <ele>1519.5</ele>
        <time>2018-11-11T09:58:18Z</time>
      </trkpt>
      <trkpt lat="42.9557" lon="0.85304">
        <ele>1520.94</ele>
        <time>2018-11-11T09:58:33Z</time>
      </trkpt>
      <trkpt lat="42.95569" lon="0.85317">
        <ele>1523.35</ele>
        <time>2018-11-11T09:58:49Z</time>
      </trkpt>
      <trkpt lat="42.95567" lon="0.8533">
        <ele>1525.75</ele>
        <time>2018-11-11T09:59:03Z</time>
      </trkpt>
      <trkpt lat="42.95567" lon="0.85341">
        <ele>1527.19</ele>
        <time>2018-11-11T09:59:17Z</time>
      </trkpt>
      <trkpt lat="42.9557" lon="0.85354">
        <ele>1529.11</ele>
        <time>2018-11-11T09:59:30Z</time>
      </trkpt>
      <trkpt lat="42.95573" lon="0.85366">
        <ele>1531.52</ele>
        <time>2018-11-11T09:59:47Z</time>
      </trkpt>
      <trkpt lat="42.95575" lon="0.8538">
        <ele>1534.88</ele>
        <time>2018-11-11T10:00:05Z</time>
      </trkpt>
      <trkpt lat="42.95581" lon="0.85389">
        <ele>1537.77</ele>
        <time>2018-11-11T10:00:21Z</time>
      </trkpt>
      <trkpt lat="42.95585" lon="0.85401">
        <ele>1539.69</ele>
        <time>2018-11-11T10:00:36Z</time>
      </trkpt>
      <trkpt lat="42.95586" lon="0.85406">
        <ele>1542.57</ele>
        <time>2018-11-11T10:01:13Z</time>
      </trkpt>
      <trkpt lat="42.95594" lon="0.85415">
        <ele>1545.46</ele>
        <time>2018-11-11T10:03:07Z</time>
      </trkpt>
      <trkpt lat="42.95596" lon="0.85425">
        <ele>1546.9</ele>
        <time>2018-11-11T10:03:40Z</time>
      </trkpt>
      <trkpt lat="42.956" lon="0.85435">
        <ele>1548.82</ele>
        <time>2018-11-11T10:03:57Z</time>
      </trkpt>
      <trkpt lat="42.95605" lon="0.85445">
        <ele>1550.74</ele>
        <time>2018-11-11T10:05:39Z</time>
      </trkpt>
      <trkpt lat="42.95604" lon="0.85448">
        <ele>1549.78</ele>
        <time>2018-11-11T10:06:02Z</time>
      </trkpt>
      <trkpt lat="42.95607" lon="0.85456">
        <ele>1548.82</ele>
        <time>2018-11-11T10:06:35Z</time>
      </trkpt>
      <trkpt lat="42.95605" lon="0.85466">
        <ele>1547.86</ele>
        <time>2018-11-11T10:06:46Z</time>
      </trkpt>
      <trkpt lat="42.95603" lon="0.85473">
        <ele>1544.98</ele>
        <time>2018-11-11T10:07:12Z</time>
      </trkpt>
      <trkpt lat="42.95598" lon="0.85484">
        <ele>1541.61</ele>
        <time>2018-11-11T10:07:33Z</time>
      </trkpt>
      <trkpt lat="42.95591" lon="0.85491">
        <ele>1538.25</ele>
        <time>2018-11-11T10:07:49Z</time>
      </trkpt>
      <trkpt lat="42.95588" lon="0.85502">
        <ele>1536.8</ele>
        <time>2018-11-11T10:08:08Z</time>
      </trkpt>
      <trkpt lat="42.95583" lon="0.85511">
        <ele>1535.36</ele>
        <time>2018-11-11T10:08:19Z</time>
      </trkpt>
      <trkpt lat="42.9558" lon="0.8552">
        <ele>1532.96</ele>
        <time>2018-11-11T10:08:36Z</time>
      </trkpt>
      <trkpt lat="42.95582" lon="0.85532">
        <ele>1530.56</ele>
        <time>2018-11-11T10:08:51Z</time>
      </trkpt>
      <trkpt lat="42.95581" lon="0.85543">
        <ele>1527.67</ele>
        <time>2018-11-11T10:09:05Z</time>
      </trkpt>
      <trkpt lat="42.95578" lon="0.85558">
        <ele>1526.71</ele>
        <time>2018-11-11T10:09:27Z</time>
      </trkpt>
      <trkpt lat="42.95579" lon="0.85569">
        <ele>1523.35</ele>
        <time>2018-11-11T10:09:45Z</time>
      </trkpt>
      <trkpt lat="42.95582" lon="0.85575">
        <ele>1520.46</ele>
        <time>2018-11-11T10:10:00Z</time>
      </trkpt>
      <trkpt lat="42.95587" lon="0.85582">
        <ele>1518.06</ele>
        <time>2018-11-11T10:10:14Z</time>
      </trkpt>
      <trkpt lat="42.95593" lon="0.85593">
        <ele>1515.66</ele>
        <time>2018-11-11T10:10:25Z</time>
      </trkpt>
      <trkpt lat="42.95597" lon="0.85604">
        <ele>1513.25</ele>
        <time>2018-11-11T10:10:35Z</time>
      </trkpt>
      <trkpt lat="42.95602" lon="0.85615">
        <ele>1511.33</ele>
        <time>2018-11-11T10:10:47Z</time>
      </trkpt>
      <trkpt lat="42.95606" lon="0.85627">
        <ele>1508.93</ele>
        <time>2018-11-11T10:11:00Z</time>
      </trkpt>
      <trkpt lat="42.95609" lon="0.85638">
        <ele>1506.52</ele>
        <time>2018-11-11T10:11:12Z</time>
      </trkpt>
      <trkpt lat="42.95613" lon="0.85649">
        <ele>1503.64</ele>
        <time>2018-11-11T10:11:24Z</time>
      </trkpt>
      <trkpt lat="42.95617" lon="0.85659">
        <ele>1502.68</ele>
        <time>2018-11-11T10:11:46Z</time>
      </trkpt>
      <trkpt lat="42.95621" lon="0.85671">
        <ele>1500.76</ele>
        <time>2018-11-11T10:11:59Z</time>
      </trkpt>
      <trkpt lat="42.9562" lon="0.8568">
        <ele>1499.79</ele>
        <time>2018-11-11T10:12:16Z</time>
      </trkpt>
      <trkpt lat="42.95622" lon="0.85686">
        <ele>1499.31</ele>
        <time>2018-11-11T10:12:48Z</time>
      </trkpt>
      <trkpt lat="42.95628" lon="0.85696">
        <ele>1498.35</ele>
        <time>2018-11-11T10:13:08Z</time>
      </trkpt>
      <trkpt lat="42.95633" lon="0.85707">
        <ele>1497.87</ele>
        <time>2018-11-11T10:13:20Z</time>
      </trkpt>
      <trkpt lat="42.95639" lon="0.85715">
        <ele>1497.87</ele>
        <time>2018-11-11T10:13:32Z</time>
      </trkpt>
      <trkpt lat="42.95645" lon="0.85724">
        <ele>1498.83</ele>
        <time>2018-11-11T10:13:45Z</time>
      </trkpt>
      <trkpt lat="42.95652" lon="0.85733">
        <ele>1499.79</ele>
        <time>2018-11-11T10:13:58Z</time>
      </trkpt>
      <trkpt lat="42.95653" lon="0.85746">
        <ele>1501.24</ele>
        <time>2018-11-11T10:14:11Z</time>
      </trkpt>
      <trkpt lat="42.95658" lon="0.85756">
        <ele>1502.2</ele>
        <time>2018-11-11T10:14:24Z</time>
      </trkpt>
      <trkpt lat="42.95664" lon="0.85766">
        <ele>1503.16</ele>
        <time>2018-11-11T10:14:37Z</time>
      </trkpt>
      <trkpt lat="42.9567" lon="0.85776">
        <ele>1505.08</ele>
        <time>2018-11-11T10:14:51Z</time>
      </trkpt>
      <trkpt lat="42.95673" lon="0.85789">
        <ele>1507</ele>
        <time>2018-11-11T10:15:04Z</time>
      </trkpt>
      <trkpt lat="42.95677" lon="0.85799">
        <ele>1507.48</ele>
        <time>2018-11-11T10:15:15Z</time>
      </trkpt>
      <trkpt lat="42.95682" lon="0.8581">
        <ele>1508.93</ele>
        <time>2018-11-11T10:15:27Z</time>
      </trkpt>
      <trkpt lat="42.95688" lon="0.85816">
        <ele>1509.89</ele>
        <time>2018-11-11T10:15:38Z</time>
      </trkpt>
      <trkpt lat="42.95694" lon="0.85828">
        <ele>1511.33</ele>
        <time>2018-11-11T10:15:52Z</time>
      </trkpt>
      <trkpt lat="42.95701" lon="0.85836">
        <ele>1513.73</ele>
        <time>2018-11-11T10:16:07Z</time>
      </trkpt>
      <trkpt lat="42.95707" lon="0.85849">
        <ele>1516.62</ele>
        <time>2018-11-11T10:16:29Z</time>
      </trkpt>
      <trkpt lat="42.95713" lon="0.8586">
        <ele>1518.54</ele>
        <time>2018-11-11T10:16:46Z</time>
      </trkpt>
      <trkpt lat="42.95716" lon="0.85871">
        <ele>1520.46</ele>
        <time>2018-11-11T10:17:02Z</time>
      </trkpt>
      <trkpt lat="42.95717" lon="0.85884">
        <ele>1522.39</ele>
        <time>2018-11-11T10:17:20Z</time>
      </trkpt>
      <trkpt lat="42.95724" lon="0.85886">
        <ele>1525.75</ele>
        <time>2018-11-11T10:17:39Z</time>
      </trkpt>
      <trkpt lat="42.95733" lon="0.85898">
        <ele>1529.11</ele>
        <time>2018-11-11T10:18:01Z</time>
      </trkpt>
      <trkpt lat="42.95737" lon="0.85907">
        <ele>1530.56</ele>
        <time>2018-11-11T10:18:15Z</time>
      </trkpt>
      <trkpt lat="42.95744" lon="0.85912">
        <ele>1532</ele>
        <time>2018-11-11T10:18:32Z</time>
      </trkpt>
      <trkpt lat="42.95748" lon="0.85924">
        <ele>1535.84</ele>
        <time>2018-11-11T10:18:53Z</time>
      </trkpt>
      <trkpt lat="42.95749" lon="0.85937">
        <ele>1538.25</ele>
        <time>2018-11-11T10:19:12Z</time>
      </trkpt>
      <trkpt lat="42.95755" lon="0.85949">
        <ele>1542.09</ele>
        <time>2018-11-11T10:19:35Z</time>
      </trkpt>
      <trkpt lat="42.95758" lon="0.85958">
        <ele>1543.53</ele>
        <time>2018-11-11T10:19:50Z</time>
      </trkpt>
      <trkpt lat="42.95762" lon="0.85966">
        <ele>1545.94</ele>
        <time>2018-11-11T10:20:09Z</time>
      </trkpt>
      <trkpt lat="42.95765" lon="0.85978">
        <ele>1546.9</ele>
        <time>2018-11-11T10:20:23Z</time>
      </trkpt>
      <trkpt lat="42.9577" lon="0.85987">
        <ele>1549.78</ele>
        <time>2018-11-11T10:20:37Z</time>
      </trkpt>
      <trkpt lat="42.95774" lon="0.85999">
        <ele>1551.71</ele>
        <time>2018-11-11T10:20:49Z</time>
      </trkpt>
      <trkpt lat="42.95776" lon="0.86009">
        <ele>1554.11</ele>
        <time>2018-11-11T10:21:03Z</time>
      </trkpt>
      <trkpt lat="42.95777" lon="0.86023">
        <ele>1556.99</ele>
        <time>2018-11-11T10:21:16Z</time>
      </trkpt>
      <trkpt lat="42.9578" lon="0.86035">
        <ele>1557.95</ele>
        <time>2018-11-11T10:21:26Z</time>
      </trkpt>
      <trkpt lat="42.95781" lon="0.86048">
        <ele>1560.36</ele>
        <time>2018-11-11T10:21:37Z</time>
      </trkpt>
      <trkpt lat="42.95786" lon="0.86055">
        <ele>1561.32</ele>
        <time>2018-11-11T10:21:47Z</time>
      </trkpt>
      <trkpt lat="42.95788" lon="0.86068">
        <ele>1562.76</ele>
        <time>2018-11-11T10:21:58Z</time>
      </trkpt>
      <trkpt lat="42.95788" lon="0.86082">
        <ele>1563.72</ele>
        <time>2018-11-11T10:22:09Z</time>
      </trkpt>
      <trkpt lat="42.95795" lon="0.86088">
        <ele>1563.24</ele>
        <time>2018-11-11T10:22:21Z</time>
      </trkpt>
      <trkpt lat="42.95802" lon="0.86095">
        <ele>1562.28</ele>
        <time>2018-11-11T10:22:30Z</time>
      </trkpt>
      <trkpt lat="42.9581" lon="0.86098">
        <ele>1561.8</ele>
        <time>2018-11-11T10:22:40Z</time>
      </trkpt>
      <trkpt lat="42.95814" lon="0.86107">
        <ele>1562.28</ele>
        <time>2018-11-11T10:23:35Z</time>
      </trkpt>
      <trkpt lat="42.95812" lon="0.86119">
        <ele>1563.72</ele>
        <time>2018-11-11T10:23:48Z</time>
      </trkpt>
      <trkpt lat="42.95811" lon="0.86132">
        <ele>1565.16</ele>
        <time>2018-11-11T10:24:00Z</time>
      </trkpt>
      <trkpt lat="42.95809" lon="0.86144">
        <ele>1565.16</ele>
        <time>2018-11-11T10:24:11Z</time>
      </trkpt>
      <trkpt lat="42.95808" lon="0.86155">
        <ele>1564.2</ele>
        <time>2018-11-11T10:24:23Z</time>
      </trkpt>
      <trkpt lat="42.95808" lon="0.86168">
        <ele>1563.72</ele>
        <time>2018-11-11T10:24:35Z</time>
      </trkpt>
      <trkpt lat="42.95809" lon="0.86181">
        <ele>1563.24</ele>
        <time>2018-11-11T10:24:46Z</time>
      </trkpt>
      <trkpt lat="42.95807" lon="0.86194">
        <ele>1562.76</ele>
        <time>2018-11-11T10:24:57Z</time>
      </trkpt>
      <trkpt lat="42.95806" lon="0.86207">
        <ele>1563.24</ele>
        <time>2018-11-11T10:25:09Z</time>
      </trkpt>
      <trkpt lat="42.95806" lon="0.86213">
        <ele>1564.2</ele>
        <time>2018-11-11T10:25:25Z</time>
      </trkpt>
      <trkpt lat="42.95807" lon="0.86225">
        <ele>1565.16</ele>
        <time>2018-11-11T10:25:43Z</time>
      </trkpt>
      <trkpt lat="42.95808" lon="0.86238">
        <ele>1565.64</ele>
        <time>2018-11-11T10:25:54Z</time>
      </trkpt>
      <trkpt lat="42.95807" lon="0.8625">
        <ele>1566.61</ele>
        <time>2018-11-11T10:26:05Z</time>
      </trkpt>
      <trkpt lat="42.95808" lon="0.86263">
        <ele>1566.61</ele>
        <time>2018-11-11T10:26:17Z</time>
      </trkpt>
      <trkpt lat="42.95809" lon="0.86275">
        <ele>1567.09</ele>
        <time>2018-11-11T10:26:27Z</time>
      </trkpt>
      <trkpt lat="42.95811" lon="0.86287">
        <ele>1567.57</ele>
        <time>2018-11-11T10:26:38Z</time>
      </trkpt>
      <trkpt lat="42.95812" lon="0.86298">
        <ele>1566.12</ele>
        <time>2018-11-11T10:26:49Z</time>
      </trkpt>
      <trkpt lat="42.95815" lon="0.86309">
        <ele>1566.12</ele>
        <time>2018-11-11T10:27:00Z</time>
      </trkpt>
      <trkpt lat="42.95821" lon="0.86321">
        <ele>1564.68</ele>
        <time>2018-11-11T10:27:11Z</time>
      </trkpt>
      <trkpt lat="42.95823" lon="0.86334">
        <ele>1565.16</ele>
        <time>2018-11-11T10:27:22Z</time>
      </trkpt>
      <trkpt lat="42.95826" lon="0.86347">
        <ele>1566.12</ele>
        <time>2018-11-11T10:27:32Z</time>
      </trkpt>
      <trkpt lat="42.95827" lon="0.86359">
        <ele>1567.09</ele>
        <time>2018-11-11T10:27:43Z</time>
      </trkpt>
      <trkpt lat="42.95827" lon="0.86372">
        <ele>1567.57</ele>
        <time>2018-11-11T10:27:54Z</time>
      </trkpt>
      <trkpt lat="42.95829" lon="0.86385">
        <ele>1568.53</ele>
        <time>2018-11-11T10:28:05Z</time>
      </trkpt>
      <trkpt lat="42.9583" lon="0.86397">
        <ele>1568.53</ele>
        <time>2018-11-11T10:28:16Z</time>
      </trkpt>
      <trkpt lat="42.95833" lon="0.86409">
        <ele>1569.01</ele>
        <time>2018-11-11T10:28:26Z</time>
      </trkpt>
      <trkpt lat="42.95836" lon="0.86422">
        <ele>1569.49</ele>
        <time>2018-11-11T10:28:36Z</time>
      </trkpt>
      <trkpt lat="42.95838" lon="0.86434">
        <ele>1568.53</ele>
        <time>2018-11-11T10:28:45Z</time>
      </trkpt>
      <trkpt lat="42.9584" lon="0.86446">
        <ele>1569.01</ele>
        <time>2018-11-11T10:28:54Z</time>
      </trkpt>
      <trkpt lat="42.95842" lon="0.86458">
        <ele>1569.01</ele>
        <time>2018-11-11T10:29:03Z</time>
      </trkpt>
      <trkpt lat="42.95843" lon="0.8647">
        <ele>1569.49</ele>
        <time>2018-11-11T10:29:13Z</time>
      </trkpt>
      <trkpt lat="42.95844" lon="0.86484">
        <ele>1569.97</ele>
        <time>2018-11-11T10:29:23Z</time>
      </trkpt>
      <trkpt lat="42.95846" lon="0.86496">
        <ele>1569.97</ele>
        <time>2018-11-11T10:29:33Z</time>
      </trkpt>
      <trkpt lat="42.95849" lon="0.86508">
        <ele>1569.97</ele>
        <time>2018-11-11T10:29:43Z</time>
      </trkpt>
      <trkpt lat="42.95852" lon="0.8652">
        <ele>1569.97</ele>
        <time>2018-11-11T10:29:52Z</time>
      </trkpt>
      <trkpt lat="42.95855" lon="0.86531">
        <ele>1568.53</ele>
        <time>2018-11-11T10:30:01Z</time>
      </trkpt>
      <trkpt lat="42.95858" lon="0.86544">
        <ele>1568.53</ele>
        <time>2018-11-11T10:30:10Z</time>
      </trkpt>
      <trkpt lat="42.95863" lon="0.86554">
        <ele>1567.57</ele>
        <time>2018-11-11T10:30:19Z</time>
      </trkpt>
      <trkpt lat="42.95869" lon="0.86563">
        <ele>1566.12</ele>
        <time>2018-11-11T10:30:30Z</time>
      </trkpt>
      <trkpt lat="42.95875" lon="0.86575">
        <ele>1564.68</ele>
        <time>2018-11-11T10:30:41Z</time>
      </trkpt>
      <trkpt lat="42.95878" lon="0.86587">
        <ele>1561.32</ele>
        <time>2018-11-11T10:30:51Z</time>
      </trkpt>
      <trkpt lat="42.95881" lon="0.86598">
        <ele>1560.84</ele>
        <time>2018-11-11T10:31:00Z</time>
      </trkpt>
      <trkpt lat="42.95885" lon="0.86611">
        <ele>1559.4</ele>
        <time>2018-11-11T10:31:10Z</time>
      </trkpt>
      <trkpt lat="42.9589" lon="0.86621">
        <ele>1557.47</ele>
        <time>2018-11-11T10:31:21Z</time>
      </trkpt>
      <trkpt lat="42.95894" lon="0.86633">
        <ele>1556.51</ele>
        <time>2018-11-11T10:31:30Z</time>
      </trkpt>
      <trkpt lat="42.95897" lon="0.86645">
        <ele>1556.51</ele>
        <time>2018-11-11T10:31:40Z</time>
      </trkpt>
      <trkpt lat="42.95902" lon="0.86656">
        <ele>1555.55</ele>
        <time>2018-11-11T10:31:50Z</time>
      </trkpt>
      <trkpt lat="42.95907" lon="0.86666">
        <ele>1555.07</ele>
        <time>2018-11-11T10:32:00Z</time>
      </trkpt>
      <trkpt lat="42.95912" lon="0.86676">
        <ele>1553.63</ele>
        <time>2018-11-11T10:32:10Z</time>
      </trkpt>
      <trkpt lat="42.95916" lon="0.86687">
        <ele>1552.67</ele>
        <time>2018-11-11T10:32:19Z</time>
      </trkpt>
      <trkpt lat="42.95918" lon="0.86701">
        <ele>1551.71</ele>
        <time>2018-11-11T10:32:29Z</time>
      </trkpt>
      <trkpt lat="42.9592" lon="0.86714">
        <ele>1552.19</ele>
        <time>2018-11-11T10:32:40Z</time>
      </trkpt>
      <trkpt lat="42.95922" lon="0.86727">
        <ele>1551.22</ele>
        <time>2018-11-11T10:32:50Z</time>
      </trkpt>
      <trkpt lat="42.95923" lon="0.8674">
        <ele>1551.71</ele>
        <time>2018-11-11T10:33:00Z</time>
      </trkpt>
      <trkpt lat="42.95925" lon="0.86752">
        <ele>1551.22</ele>
        <time>2018-11-11T10:33:10Z</time>
      </trkpt>
      <trkpt lat="42.95925" lon="0.86766">
        <ele>1550.26</ele>
        <time>2018-11-11T10:33:19Z</time>
      </trkpt>
      <trkpt lat="42.95927" lon="0.86779">
        <ele>1550.74</ele>
        <time>2018-11-11T10:33:28Z</time>
      </trkpt>
      <trkpt lat="42.95927" lon="0.86791">
        <ele>1550.26</ele>
        <time>2018-11-11T10:33:44Z</time>
      </trkpt>
      <trkpt lat="42.95931" lon="0.86797">
        <ele>1550.74</ele>
        <time>2018-11-11T10:33:59Z</time>
      </trkpt>
      <trkpt lat="42.95928" lon="0.86788">
        <ele>1551.71</ele>
        <time>2018-11-11T10:35:14Z</time>
      </trkpt>
      <trkpt lat="42.95926" lon="0.86796">
        <ele>1550.74</ele>
        <time>2018-11-11T10:36:06Z</time>
      </trkpt>
      <trkpt lat="42.95929" lon="0.86794">
        <ele>1551.22</ele>
        <time>2018-11-11T10:36:39Z</time>
      </trkpt>
      <trkpt lat="42.9593" lon="0.86798">
        <ele>1551.71</ele>
        <time>2018-11-11T10:37:47Z</time>
      </trkpt>
      <trkpt lat="42.95937" lon="0.86807">
        <ele>1549.78</ele>
        <time>2018-11-11T10:38:00Z</time>
      </trkpt>
      <trkpt lat="42.95944" lon="0.86814">
        <ele>1547.86</ele>
        <time>2018-11-11T10:38:17Z</time>
      </trkpt>
      <trkpt lat="42.95944" lon="0.86822">
        <ele>1546.9</ele>
        <time>2018-11-11T10:38:57Z</time>
      </trkpt>
      <trkpt lat="42.95943" lon="0.86834">
        <ele>1545.94</ele>
        <time>2018-11-11T10:39:20Z</time>
      </trkpt>
      <trkpt lat="42.95946" lon="0.86847">
        <ele>1544.98</ele>
        <time>2018-11-11T10:39:28Z</time>
      </trkpt>
      <trkpt lat="42.95949" lon="0.86859">
        <ele>1544.5</ele>
        <time>2018-11-11T10:39:36Z</time>
      </trkpt>
      <trkpt lat="42.95948" lon="0.86872">
        <ele>1544.01</ele>
        <time>2018-11-11T10:39:44Z</time>
      </trkpt>
      <trkpt lat="42.95949" lon="0.86884">
        <ele>1544.01</ele>
        <time>2018-11-11T10:39:53Z</time>
      </trkpt>
      <trkpt lat="42.95952" lon="0.86896">
        <ele>1543.53</ele>
        <time>2018-11-11T10:40:01Z</time>
      </trkpt>
      <trkpt lat="42.95953" lon="0.86909">
        <ele>1542.57</ele>
        <time>2018-11-11T10:40:10Z</time>
      </trkpt>
      <trkpt lat="42.95957" lon="0.8692">
        <ele>1541.61</ele>
        <time>2018-11-11T10:40:20Z</time>
      </trkpt>
      <trkpt lat="42.95959" lon="0.86934">
        <ele>1540.65</ele>
        <time>2018-11-11T10:40:29Z</time>
      </trkpt>
      <trkpt lat="42.95957" lon="0.86947">
        <ele>1540.17</ele>
        <time>2018-11-11T10:40:38Z</time>
      </trkpt>
      <trkpt lat="42.95956" lon="0.86961">
        <ele>1539.69</ele>
        <time>2018-11-11T10:40:47Z</time>
      </trkpt>
      <trkpt lat="42.95956" lon="0.86973">
        <ele>1541.13</ele>
        <time>2018-11-11T10:40:58Z</time>
      </trkpt>
      <trkpt lat="42.95953" lon="0.86984">
        <ele>1541.61</ele>
        <time>2018-11-11T10:41:08Z</time>
      </trkpt>
      <trkpt lat="42.95951" lon="0.86996">
        <ele>1542.09</ele>
        <time>2018-11-11T10:41:17Z</time>
      </trkpt>
      <trkpt lat="42.95947" lon="0.87008">
        <ele>1542.09</ele>
        <time>2018-11-11T10:41:27Z</time>
      </trkpt>
      <trkpt lat="42.95942" lon="0.8702">
        <ele>1542.09</ele>
        <time>2018-11-11T10:41:37Z</time>
      </trkpt>
      <trkpt lat="42.95935" lon="0.87027">
        <ele>1542.09</ele>
        <time>2018-11-11T10:41:47Z</time>
      </trkpt>
      <trkpt lat="42.95928" lon="0.87035">
        <ele>1539.69</ele>
        <time>2018-11-11T10:41:57Z</time>
      </trkpt>
      <trkpt lat="42.95921" lon="0.87042">
        <ele>1536.32</ele>
        <time>2018-11-11T10:42:10Z</time>
      </trkpt>
      <trkpt lat="42.95913" lon="0.87052">
        <ele>1533.44</ele>
        <time>2018-11-11T10:42:26Z</time>
      </trkpt>
      <trkpt lat="42.95907" lon="0.87054">
        <ele>1530.08</ele>
        <time>2018-11-11T10:42:46Z</time>
      </trkpt>
      <trkpt lat="42.95904" lon="0.8706">
        <ele>1526.23</ele>
        <time>2018-11-11T10:43:10Z</time>
      </trkpt>
      <trkpt lat="42.95905" lon="0.87072">
        <ele>1523.35</ele>
        <time>2018-11-11T10:43:41Z</time>
      </trkpt>
      <trkpt lat="42.95898" lon="0.87085">
        <ele>1519.98</ele>
        <time>2018-11-11T10:44:00Z</time>
      </trkpt>
      <trkpt lat="42.95886" lon="0.87099">
        <ele>1522.39</ele>
        <time>2018-11-11T10:44:19Z</time>
      </trkpt>
      <trkpt lat="42.95879" lon="0.87114">
        <ele>1522.87</ele>
        <time>2018-11-11T10:44:34Z</time>
      </trkpt>
      <trkpt lat="42.95876" lon="0.8713">
        <ele>1521.9</ele>
        <time>2018-11-11T10:44:48Z</time>
      </trkpt>
      <trkpt lat="42.95874" lon="0.87143">
        <ele>1521.9</ele>
        <time>2018-11-11T10:45:00Z</time>
      </trkpt>
      <trkpt lat="42.95871" lon="0.8716">
        <ele>1520.94</ele>
        <time>2018-11-11T10:45:18Z</time>
      </trkpt>
      <trkpt lat="42.95865" lon="0.87176">
        <ele>1517.58</ele>
        <time>2018-11-11T10:45:36Z</time>
      </trkpt>
      <trkpt lat="42.9586" lon="0.87191">
        <ele>1515.66</ele>
        <time>2018-11-11T10:45:52Z</time>
      </trkpt>
      <trkpt lat="42.95858" lon="0.87208">
        <ele>1512.77</ele>
        <time>2018-11-11T10:46:09Z</time>
      </trkpt>
      <trkpt lat="42.95851" lon="0.87219">
        <ele>1509.89</ele>
        <time>2018-11-11T10:46:22Z</time>
      </trkpt>
      <trkpt lat="42.95844" lon="0.87235">
        <ele>1507</ele>
        <time>2018-11-11T10:46:43Z</time>
      </trkpt>
      <trkpt lat="42.95831" lon="0.87249">
        <ele>1510.85</ele>
        <time>2018-11-11T10:47:03Z</time>
      </trkpt>
      <trkpt lat="42.9583" lon="0.87267">
        <ele>1516.14</ele>
        <time>2018-11-11T10:47:29Z</time>
      </trkpt>
      <trkpt lat="42.95825" lon="0.87286">
        <ele>1519.02</ele>
        <time>2018-11-11T10:47:55Z</time>
      </trkpt>
      <trkpt lat="42.95824" lon="0.87301">
        <ele>1523.35</ele>
        <time>2018-11-11T10:48:24Z</time>
      </trkpt>
      <trkpt lat="42.9582" lon="0.87319">
        <ele>1528.15</ele>
        <time>2018-11-11T10:48:53Z</time>
      </trkpt>
      <trkpt lat="42.95816" lon="0.87329">
        <ele>1530.56</ele>
        <time>2018-11-11T10:49:07Z</time>
      </trkpt>
      <trkpt lat="42.95815" lon="0.87343">
        <ele>1534.88</ele>
        <time>2018-11-11T10:49:27Z</time>
      </trkpt>
      <trkpt lat="42.95819" lon="0.87354">
        <ele>1537.77</ele>
        <time>2018-11-11T10:49:45Z</time>
      </trkpt>
      <trkpt lat="42.95818" lon="0.87368">
        <ele>1540.17</ele>
        <time>2018-11-11T10:50:03Z</time>
      </trkpt>
      <trkpt lat="42.95813" lon="0.87378">
        <ele>1543.53</ele>
        <time>2018-11-11T10:50:19Z</time>
      </trkpt>
      <trkpt lat="42.9581" lon="0.87389">
        <ele>1545.94</ele>
        <time>2018-11-11T10:50:34Z</time>
      </trkpt>
      <trkpt lat="42.95807" lon="0.87399">
        <ele>1548.34</ele>
        <time>2018-11-11T10:50:50Z</time>
      </trkpt>
      <trkpt lat="42.958" lon="0.87412">
        <ele>1551.71</ele>
        <time>2018-11-11T10:51:08Z</time>
      </trkpt>
      <trkpt lat="42.95795" lon="0.87423">
        <ele>1554.11</ele>
        <time>2018-11-11T10:51:23Z</time>
      </trkpt>
      <trkpt lat="42.95792" lon="0.87434">
        <ele>1555.55</ele>
        <time>2018-11-11T10:51:37Z</time>
      </trkpt>
      <trkpt lat="42.95791" lon="0.87446">
        <ele>1557.47</ele>
        <time>2018-11-11T10:51:54Z</time>
      </trkpt>
      <trkpt lat="42.95786" lon="0.87452">
        <ele>1560.36</ele>
        <time>2018-11-11T10:52:16Z</time>
      </trkpt>
      <trkpt lat="42.95781" lon="0.87463">
        <ele>1563.72</ele>
        <time>2018-11-11T10:52:31Z</time>
      </trkpt>
      <trkpt lat="42.95776" lon="0.87474">
        <ele>1565.64</ele>
        <time>2018-11-11T10:52:45Z</time>
      </trkpt>
      <trkpt lat="42.9577" lon="0.87483">
        <ele>1567.57</ele>
        <time>2018-11-11T10:52:57Z</time>
      </trkpt>
      <trkpt lat="42.95765" lon="0.87493">
        <ele>1569.01</ele>
        <time>2018-11-11T10:53:10Z</time>
      </trkpt>
      <trkpt lat="42.95761" lon="0.87506">
        <ele>1568.53</ele>
        <time>2018-11-11T10:53:26Z</time>
      </trkpt>
      <trkpt lat="42.95761" lon="0.87519">
        <ele>1567.57</ele>
        <time>2018-11-11T10:53:51Z</time>
      </trkpt>
      <trkpt lat="42.95764" lon="0.87529">
        <ele>1565.64</ele>
        <time>2018-11-11T10:54:05Z</time>
      </trkpt>
      <trkpt lat="42.95765" lon="0.87541">
        <ele>1564.68</ele>
        <time>2018-11-11T10:54:18Z</time>
      </trkpt>
      <trkpt lat="42.95768" lon="0.87553">
        <ele>1564.68</ele>
        <time>2018-11-11T10:54:30Z</time>
      </trkpt>
      <trkpt lat="42.95772" lon="0.87564">
        <ele>1564.2</ele>
        <time>2018-11-11T10:54:42Z</time>
      </trkpt>
      <trkpt lat="42.95777" lon="0.87575">
        <ele>1563.72</ele>
        <time>2018-11-11T10:54:54Z</time>
      </trkpt>
      <trkpt lat="42.95778" lon="0.87587">
        <ele>1564.2</ele>
        <time>2018-11-11T10:55:07Z</time>
      </trkpt>
      <trkpt lat="42.95782" lon="0.87599">
        <ele>1565.64</ele>
        <time>2018-11-11T10:55:19Z</time>
      </trkpt>
      <trkpt lat="42.95784" lon="0.87612">
        <ele>1566.61</ele>
        <time>2018-11-11T10:55:30Z</time>
      </trkpt>
      <trkpt lat="42.95784" lon="0.87624">
        <ele>1567.57</ele>
        <time>2018-11-11T10:55:41Z</time>
      </trkpt>
      <trkpt lat="42.95783" lon="0.87636">
        <ele>1568.53</ele>
        <time>2018-11-11T10:55:52Z</time>
      </trkpt>
      <trkpt lat="42.95787" lon="0.87648">
        <ele>1570.93</ele>
        <time>2018-11-11T10:56:04Z</time>
      </trkpt>
      <trkpt lat="42.95788" lon="0.8766">
        <ele>1571.41</ele>
        <time>2018-11-11T10:57:01Z</time>
      </trkpt>
      <trkpt lat="42.95794" lon="0.8767">
        <ele>1569.97</ele>
        <time>2018-11-11T10:57:12Z</time>
      </trkpt>
      <trkpt lat="42.95793" lon="0.87682">
        <ele>1568.53</ele>
        <time>2018-11-11T10:57:24Z</time>
      </trkpt>
      <trkpt lat="42.95794" lon="0.87694">
        <ele>1567.57</ele>
        <time>2018-11-11T10:57:35Z</time>
      </trkpt>
      <trkpt lat="42.95795" lon="0.87706">
        <ele>1567.57</ele>
        <time>2018-11-11T10:57:45Z</time>
      </trkpt>
      <trkpt lat="42.95796" lon="0.87719">
        <ele>1568.53</ele>
        <time>2018-11-11T10:57:55Z</time>
      </trkpt>
      <trkpt lat="42.95798" lon="0.87732">
        <ele>1569.49</ele>
        <time>2018-11-11T10:58:05Z</time>
      </trkpt>
      <trkpt lat="42.95799" lon="0.87745">
        <ele>1569.97</ele>
        <time>2018-11-11T10:58:16Z</time>
      </trkpt>
      <trkpt lat="42.95805" lon="0.87755">
        <ele>1571.41</ele>
        <time>2018-11-11T10:58:27Z</time>
      </trkpt>
      <trkpt lat="42.95811" lon="0.87766">
        <ele>1572.85</ele>
        <time>2018-11-11T10:58:38Z</time>
      </trkpt>
      <trkpt lat="42.95811" lon="0.87779">
        <ele>1572.85</ele>
        <time>2018-11-11T10:58:49Z</time>
      </trkpt>
      <trkpt lat="42.95809" lon="0.87792">
        <ele>1571.41</ele>
        <time>2018-11-11T10:59:03Z</time>
      </trkpt>
      <trkpt lat="42.95807" lon="0.87803">
        <ele>1569.49</ele>
        <time>2018-11-11T10:59:21Z</time>
      </trkpt>
      <trkpt lat="42.95808" lon="0.87805">
        <ele>1569.49</ele>
        <time>2018-11-11T11:42:06Z</time>
      </trkpt>
      <trkpt lat="42.95806" lon="0.87808">
        <ele>1569.01</ele>
        <time>2018-11-11T11:59:58Z</time>
      </trkpt>
      <trkpt lat="42.95811" lon="0.87821">
        <ele>1567.57</ele>
        <time>2018-11-11T12:14:49Z</time>
      </trkpt>
      <trkpt lat="42.95803" lon="0.87813">
        <ele>1569.97</ele>
        <time>2018-11-11T12:25:31Z</time>
      </trkpt>
      <trkpt lat="42.95805" lon="0.87802">
        <ele>1575.26</ele>
        <time>2018-11-11T12:53:52Z</time>
      </trkpt>
      <trkpt lat="42.95807" lon="0.87788">
        <ele>1577.18</ele>
        <time>2018-11-11T12:54:17Z</time>
      </trkpt>
      <trkpt lat="42.95806" lon="0.87776">
        <ele>1578.62</ele>
        <time>2018-11-11T12:54:31Z</time>
      </trkpt>
      <trkpt lat="42.95806" lon="0.87764">
        <ele>1578.62</ele>
        <time>2018-11-11T12:54:44Z</time>
      </trkpt>
      <trkpt lat="42.95809" lon="0.87751">
        <ele>1579.1</ele>
        <time>2018-11-11T12:54:57Z</time>
      </trkpt>
      <trkpt lat="42.9581" lon="0.87739">
        <ele>1578.62</ele>
        <time>2018-11-11T12:55:12Z</time>
      </trkpt>
      <trkpt lat="42.95807" lon="0.87725">
        <ele>1577.18</ele>
        <time>2018-11-11T12:55:24Z</time>
      </trkpt>
      <trkpt lat="42.95804" lon="0.87713">
        <ele>1576.22</ele>
        <time>2018-11-11T12:55:35Z</time>
      </trkpt>
      <trkpt lat="42.95803" lon="0.87699">
        <ele>1574.78</ele>
        <time>2018-11-11T12:55:45Z</time>
      </trkpt>
      <trkpt lat="42.95802" lon="0.87687">
        <ele>1573.82</ele>
        <time>2018-11-11T12:55:54Z</time>
      </trkpt>
      <trkpt lat="42.95802" lon="0.87675">
        <ele>1573.33</ele>
        <time>2018-11-11T12:56:06Z</time>
      </trkpt>
      <trkpt lat="42.95801" lon="0.87662">
        <ele>1573.82</ele>
        <time>2018-11-11T12:56:19Z</time>
      </trkpt>
      <trkpt lat="42.95794" lon="0.87651">
        <ele>1573.33</ele>
        <time>2018-11-11T12:56:29Z</time>
      </trkpt>
      <trkpt lat="42.95789" lon="0.8764">
        <ele>1573.82</ele>
        <time>2018-11-11T12:56:39Z</time>
      </trkpt>
      <trkpt lat="42.95785" lon="0.8763">
        <ele>1573.33</ele>
        <time>2018-11-11T12:56:50Z</time>
      </trkpt>
      <trkpt lat="42.95783" lon="0.87616">
        <ele>1571.89</ele>
        <time>2018-11-11T12:57:02Z</time>
      </trkpt>
      <trkpt lat="42.95781" lon="0.87602">
        <ele>1571.41</ele>
        <time>2018-11-11T12:57:12Z</time>
      </trkpt>
      <trkpt lat="42.95778" lon="0.8759">
        <ele>1570.45</ele>
        <time>2018-11-11T12:57:21Z</time>
      </trkpt>
      <trkpt lat="42.95776" lon="0.87577">
        <ele>1569.49</ele>
        <time>2018-11-11T12:57:30Z</time>
      </trkpt>
      <trkpt lat="42.95772" lon="0.87565">
        <ele>1569.49</ele>
        <time>2018-11-11T12:57:39Z</time>
      </trkpt>
      <trkpt lat="42.95766" lon="0.87556">
        <ele>1569.49</ele>
        <time>2018-11-11T12:57:49Z</time>
      </trkpt>
      <trkpt lat="42.95763" lon="0.87543">
        <ele>1569.49</ele>
        <time>2018-11-11T12:57:58Z</time>
      </trkpt>
      <trkpt lat="42.95759" lon="0.87531">
        <ele>1569.97</ele>
        <time>2018-11-11T12:58:08Z</time>
      </trkpt>
      <trkpt lat="42.95757" lon="0.87518">
        <ele>1571.89</ele>
        <time>2018-11-11T12:58:19Z</time>
      </trkpt>
      <trkpt lat="42.95755" lon="0.87505">
        <ele>1572.85</ele>
        <time>2018-11-11T12:58:30Z</time>
      </trkpt>
      <trkpt lat="42.95762" lon="0.87495">
        <ele>1573.82</ele>
        <time>2018-11-11T12:58:41Z</time>
      </trkpt>
      <trkpt lat="42.95766" lon="0.87485">
        <ele>1573.33</ele>
        <time>2018-11-11T12:58:53Z</time>
      </trkpt>
      <trkpt lat="42.95772" lon="0.87476">
        <ele>1571.89</ele>
        <time>2018-11-11T12:59:07Z</time>
      </trkpt>
      <trkpt lat="42.95779" lon="0.87466">
        <ele>1570.45</ele>
        <time>2018-11-11T12:59:18Z</time>
      </trkpt>
      <trkpt lat="42.95783" lon="0.87453">
        <ele>1567.09</ele>
        <time>2018-11-11T12:59:30Z</time>
      </trkpt>
      <trkpt lat="42.9579" lon="0.87445">
        <ele>1563.24</ele>
        <time>2018-11-11T12:59:44Z</time>
      </trkpt>
      <trkpt lat="42.95791" lon="0.87431">
        <ele>1560.36</ele>
        <time>2018-11-11T12:59:54Z</time>
      </trkpt>
      <trkpt lat="42.95794" lon="0.8742">
        <ele>1558.43</ele>
        <time>2018-11-11T13:00:04Z</time>
      </trkpt>
      <trkpt lat="42.95802" lon="0.8741">
        <ele>1556.51</ele>
        <time>2018-11-11T13:00:16Z</time>
      </trkpt>
      <trkpt lat="42.95805" lon="0.87397">
        <ele>1553.15</ele>
        <time>2018-11-11T13:00:28Z</time>
      </trkpt>
      <trkpt lat="42.95807" lon="0.87383">
        <ele>1550.26</ele>
        <time>2018-11-11T13:00:40Z</time>
      </trkpt>
      <trkpt lat="42.95811" lon="0.87371">
        <ele>1548.34</ele>
        <time>2018-11-11T13:00:52Z</time>
      </trkpt>
      <trkpt lat="42.95817" lon="0.87359">
        <ele>1544.5</ele>
        <time>2018-11-11T13:01:05Z</time>
      </trkpt>
      <trkpt lat="42.95816" lon="0.87345">
        <ele>1541.13</ele>
        <time>2018-11-11T13:01:18Z</time>
      </trkpt>
      <trkpt lat="42.95817" lon="0.87331">
        <ele>1538.25</ele>
        <time>2018-11-11T13:01:33Z</time>
      </trkpt>
      <trkpt lat="42.95819" lon="0.87317">
        <ele>1534.88</ele>
        <time>2018-11-11T13:01:50Z</time>
      </trkpt>
      <trkpt lat="42.95819" lon="0.87302">
        <ele>1530.56</ele>
        <time>2018-11-11T13:02:09Z</time>
      </trkpt>
      <trkpt lat="42.95821" lon="0.87277">
        <ele>1523.83</ele>
        <time>2018-11-11T13:02:37Z</time>
      </trkpt>
      <trkpt lat="42.95824" lon="0.87249">
        <ele>1516.62</ele>
        <time>2018-11-11T13:03:09Z</time>
      </trkpt>
      <trkpt lat="42.95835" lon="0.87233">
        <ele>1512.77</ele>
        <time>2018-11-11T13:03:40Z</time>
      </trkpt>
      <trkpt lat="42.95848" lon="0.87208">
        <ele>1516.62</ele>
        <time>2018-11-11T13:04:12Z</time>
      </trkpt>
      <trkpt lat="42.95856" lon="0.87187">
        <ele>1519.98</ele>
        <time>2018-11-11T13:04:38Z</time>
      </trkpt>
      <trkpt lat="42.95863" lon="0.87163">
        <ele>1522.39</ele>
        <time>2018-11-11T13:05:05Z</time>
      </trkpt>
      <trkpt lat="42.95868" lon="0.87137">
        <ele>1525.27</ele>
        <time>2018-11-11T13:05:36Z</time>
      </trkpt>
      <trkpt lat="42.95872" lon="0.87113">
        <ele>1525.27</ele>
        <time>2018-11-11T13:05:55Z</time>
      </trkpt>
      <trkpt lat="42.95883" lon="0.87094">
        <ele>1525.27</ele>
        <time>2018-11-11T13:06:15Z</time>
      </trkpt>
      <trkpt lat="42.95895" lon="0.87084">
        <ele>1524.31</ele>
        <time>2018-11-11T13:06:30Z</time>
      </trkpt>
      <trkpt lat="42.95901" lon="0.87068">
        <ele>1526.71</ele>
        <time>2018-11-11T13:06:52Z</time>
      </trkpt>
      <trkpt lat="42.959" lon="0.87052">
        <ele>1530.56</ele>
        <time>2018-11-11T13:07:18Z</time>
      </trkpt>
      <trkpt lat="42.95899" lon="0.87029">
        <ele>1533.44</ele>
        <time>2018-11-11T13:07:43Z</time>
      </trkpt>
      <trkpt lat="42.959" lon="0.87012">
        <ele>1533.92</ele>
        <time>2018-11-11T13:07:58Z</time>
      </trkpt>
      <trkpt lat="42.95904" lon="0.86993">
        <ele>1535.36</ele>
        <time>2018-11-11T13:08:17Z</time>
      </trkpt>
      <trkpt lat="42.9591" lon="0.8698">
        <ele>1537.29</ele>
        <time>2018-11-11T13:08:34Z</time>
      </trkpt>
      <trkpt lat="42.95919" lon="0.86989">
        <ele>1538.73</ele>
        <time>2018-11-11T13:08:58Z</time>
      </trkpt>
      <trkpt lat="42.95928" lon="0.8699">
        <ele>1540.65</ele>
        <time>2018-11-11T13:09:15Z</time>
      </trkpt>
      <trkpt lat="42.95936" lon="0.86981">
        <ele>1541.61</ele>
        <time>2018-11-11T13:09:28Z</time>
      </trkpt>
      <trkpt lat="42.95943" lon="0.86972">
        <ele>1541.61</ele>
        <time>2018-11-11T13:09:39Z</time>
      </trkpt>
      <trkpt lat="42.9595" lon="0.86964">
        <ele>1543.53</ele>
        <time>2018-11-11T13:09:50Z</time>
      </trkpt>
      <trkpt lat="42.95953" lon="0.86954">
        <ele>1543.53</ele>
        <time>2018-11-11T13:10:11Z</time>
      </trkpt>
      <trkpt lat="42.95955" lon="0.86942">
        <ele>1543.53</ele>
        <time>2018-11-11T13:10:22Z</time>
      </trkpt>
      <trkpt lat="42.95955" lon="0.86929">
        <ele>1544.5</ele>
        <time>2018-11-11T13:10:33Z</time>
      </trkpt>
      <trkpt lat="42.9595" lon="0.86919">
        <ele>1544.98</ele>
        <time>2018-11-11T13:10:43Z</time>
      </trkpt>
      <trkpt lat="42.9594" lon="0.86912">
        <ele>1544.98</ele>
        <time>2018-11-11T13:10:54Z</time>
      </trkpt>
      <trkpt lat="42.95931" lon="0.86907">
        <ele>1545.46</ele>
        <time>2018-11-11T13:11:05Z</time>
      </trkpt>
      <trkpt lat="42.95927" lon="0.86908">
        <ele>1544.01</ele>
        <time>2018-11-11T13:15:15Z</time>
      </trkpt>
      <trkpt lat="42.95925" lon="0.86902">
        <ele>1544.98</ele>
        <time>2018-11-11T13:17:46Z</time>
      </trkpt>
      <trkpt lat="42.95927" lon="0.86908">
        <ele>1545.46</ele>
        <time>2018-11-11T13:18:07Z</time>
      </trkpt>
      <trkpt lat="42.95925" lon="0.86904">
        <ele>1545.46</ele>
        <time>2018-11-11T13:19:17Z</time>
      </trkpt>
      <trkpt lat="42.95929" lon="0.86894">
        <ele>1546.42</ele>
        <time>2018-11-11T13:19:40Z</time>
      </trkpt>
      <trkpt lat="42.95937" lon="0.86885">
        <ele>1547.38</ele>
        <time>2018-11-11T13:20:02Z</time>
      </trkpt>
      <trkpt lat="42.95942" lon="0.86874">
        <ele>1547.38</ele>
        <time>2018-11-11T13:20:15Z</time>
      </trkpt>
      <trkpt lat="42.95945" lon="0.86864">
        <ele>1547.38</ele>
        <time>2018-11-11T13:20:27Z</time>
      </trkpt>
      <trkpt lat="42.95938" lon="0.86853">
        <ele>1547.38</ele>
        <time>2018-11-11T13:20:37Z</time>
      </trkpt>
      <trkpt lat="42.95935" lon="0.86843">
        <ele>1547.38</ele>
        <time>2018-11-11T13:20:50Z</time>
      </trkpt>
      <trkpt lat="42.95936" lon="0.86832">
        <ele>1547.38</ele>
        <time>2018-11-11T13:21:04Z</time>
      </trkpt>
      <trkpt lat="42.9594" lon="0.86819">
        <ele>1549.3</ele>
        <time>2018-11-11T13:21:19Z</time>
      </trkpt>
      <trkpt lat="42.95939" lon="0.86807">
        <ele>1551.22</ele>
        <time>2018-11-11T13:21:34Z</time>
      </trkpt>
      <trkpt lat="42.95934" lon="0.86797">
        <ele>1552.19</ele>
        <time>2018-11-11T13:21:58Z</time>
      </trkpt>
      <trkpt lat="42.95928" lon="0.86795">
        <ele>1553.15</ele>
        <time>2018-11-11T13:22:19Z</time>
      </trkpt>
      <trkpt lat="42.95926" lon="0.86786">
        <ele>1553.63</ele>
        <time>2018-11-11T13:22:37Z</time>
      </trkpt>
      <trkpt lat="42.95924" lon="0.86773">
        <ele>1554.11</ele>
        <time>2018-11-11T13:22:47Z</time>
      </trkpt>
      <trkpt lat="42.95922" lon="0.86761">
        <ele>1554.11</ele>
        <time>2018-11-11T13:22:57Z</time>
      </trkpt>
      <trkpt lat="42.95922" lon="0.86748">
        <ele>1554.11</ele>
        <time>2018-11-11T13:23:08Z</time>
      </trkpt>
      <trkpt lat="42.95919" lon="0.86735">
        <ele>1554.59</ele>
        <time>2018-11-11T13:23:19Z</time>
      </trkpt>
      <trkpt lat="42.95919" lon="0.86722">
        <ele>1554.59</ele>
        <time>2018-11-11T13:23:30Z</time>
      </trkpt>
      <trkpt lat="42.95916" lon="0.86711">
        <ele>1555.07</ele>
        <time>2018-11-11T13:23:41Z</time>
      </trkpt>
      <trkpt lat="42.95913" lon="0.86697">
        <ele>1555.07</ele>
        <time>2018-11-11T13:23:50Z</time>
      </trkpt>
      <trkpt lat="42.95911" lon="0.86684">
        <ele>1555.07</ele>
        <time>2018-11-11T13:23:59Z</time>
      </trkpt>
      <trkpt lat="42.95908" lon="0.86674">
        <ele>1556.51</ele>
        <time>2018-11-11T13:24:13Z</time>
      </trkpt>
      <trkpt lat="42.95901" lon="0.86664">
        <ele>1557.47</ele>
        <time>2018-11-11T13:24:26Z</time>
      </trkpt>
      <trkpt lat="42.95899" lon="0.86652">
        <ele>1557.95</ele>
        <time>2018-11-11T13:24:37Z</time>
      </trkpt>
      <trkpt lat="42.95896" lon="0.8664">
        <ele>1558.92</ele>
        <time>2018-11-11T13:24:48Z</time>
      </trkpt>
      <trkpt lat="42.95892" lon="0.86629">
        <ele>1559.88</ele>
        <time>2018-11-11T13:24:59Z</time>
      </trkpt>
      <trkpt lat="42.95889" lon="0.86616">
        <ele>1560.36</ele>
        <time>2018-11-11T13:25:11Z</time>
      </trkpt>
      <trkpt lat="42.95884" lon="0.86607">
        <ele>1561.8</ele>
        <time>2018-11-11T13:25:23Z</time>
      </trkpt>
      <trkpt lat="42.9588" lon="0.86595">
        <ele>1562.76</ele>
        <time>2018-11-11T13:25:34Z</time>
      </trkpt>
      <trkpt lat="42.95877" lon="0.86582">
        <ele>1565.16</ele>
        <time>2018-11-11T13:25:47Z</time>
      </trkpt>
      <trkpt lat="42.95873" lon="0.86572">
        <ele>1566.61</ele>
        <time>2018-11-11T13:25:59Z</time>
      </trkpt>
      <trkpt lat="42.95869" lon="0.86562">
        <ele>1568.05</ele>
        <time>2018-11-11T13:26:14Z</time>
      </trkpt>
      <trkpt lat="42.95864" lon="0.86551">
        <ele>1570.45</ele>
        <time>2018-11-11T13:26:28Z</time>
      </trkpt>
      <trkpt lat="42.95859" lon="0.86541">
        <ele>1570.93</ele>
        <time>2018-11-11T13:26:40Z</time>
      </trkpt>
      <trkpt lat="42.95854" lon="0.86532">
        <ele>1572.37</ele>
        <time>2018-11-11T13:26:51Z</time>
      </trkpt>
      <trkpt lat="42.95851" lon="0.86523">
        <ele>1573.33</ele>
        <time>2018-11-11T13:27:06Z</time>
      </trkpt>
      <trkpt lat="42.95851" lon="0.8651">
        <ele>1574.78</ele>
        <time>2018-11-11T13:27:18Z</time>
      </trkpt>
      <trkpt lat="42.9585" lon="0.86498">
        <ele>1574.3</ele>
        <time>2018-11-11T13:27:30Z</time>
      </trkpt>
      <trkpt lat="42.95846" lon="0.86483">
        <ele>1574.3</ele>
        <time>2018-11-11T13:27:42Z</time>
      </trkpt>
      <trkpt lat="42.95842" lon="0.86471">
        <ele>1574.3</ele>
        <time>2018-11-11T13:28:07Z</time>
      </trkpt>
      <trkpt lat="42.95838" lon="0.86462">
        <ele>1573.82</ele>
        <time>2018-11-11T13:28:24Z</time>
      </trkpt>
      <trkpt lat="42.95839" lon="0.86451">
        <ele>1573.82</ele>
        <time>2018-11-11T13:28:47Z</time>
      </trkpt>
      <trkpt lat="42.95839" lon="0.86438">
        <ele>1573.82</ele>
        <time>2018-11-11T13:28:58Z</time>
      </trkpt>
      <trkpt lat="42.95837" lon="0.86426">
        <ele>1573.33</ele>
        <time>2018-11-11T13:29:09Z</time>
      </trkpt>
      <trkpt lat="42.95831" lon="0.86416">
        <ele>1574.78</ele>
        <time>2018-11-11T13:29:21Z</time>
      </trkpt>
      <trkpt lat="42.95827" lon="0.86405">
        <ele>1574.78</ele>
        <time>2018-11-11T13:29:32Z</time>
      </trkpt>
      <trkpt lat="42.95825" lon="0.86393">
        <ele>1574.78</ele>
        <time>2018-11-11T13:29:42Z</time>
      </trkpt>
      <trkpt lat="42.95824" lon="0.86381">
        <ele>1573.82</ele>
        <time>2018-11-11T13:29:52Z</time>
      </trkpt>
      <trkpt lat="42.95823" lon="0.86368">
        <ele>1573.33</ele>
        <time>2018-11-11T13:30:02Z</time>
      </trkpt>
      <trkpt lat="42.95822" lon="0.86356">
        <ele>1572.85</ele>
        <time>2018-11-11T13:30:12Z</time>
      </trkpt>
      <trkpt lat="42.95821" lon="0.86343">
        <ele>1572.37</ele>
        <time>2018-11-11T13:30:22Z</time>
      </trkpt>
      <trkpt lat="42.95819" lon="0.86331">
        <ele>1571.89</ele>
        <time>2018-11-11T13:30:31Z</time>
      </trkpt>
      <trkpt lat="42.95817" lon="0.86319">
        <ele>1571.41</ele>
        <time>2018-11-11T13:30:40Z</time>
      </trkpt>
      <trkpt lat="42.95815" lon="0.86306">
        <ele>1571.41</ele>
        <time>2018-11-11T13:30:50Z</time>
      </trkpt>
      <trkpt lat="42.95814" lon="0.86293">
        <ele>1571.41</ele>
        <time>2018-11-11T13:31:00Z</time>
      </trkpt>
      <trkpt lat="42.95812" lon="0.8628">
        <ele>1571.89</ele>
        <time>2018-11-11T13:31:10Z</time>
      </trkpt>
      <trkpt lat="42.95811" lon="0.86268">
        <ele>1571.41</ele>
        <time>2018-11-11T13:31:21Z</time>
      </trkpt>
      <trkpt lat="42.95809" lon="0.86255">
        <ele>1571.89</ele>
        <time>2018-11-11T13:31:30Z</time>
      </trkpt>
      <trkpt lat="42.95809" lon="0.86243">
        <ele>1572.37</ele>
        <time>2018-11-11T13:31:40Z</time>
      </trkpt>
      <trkpt lat="42.95809" lon="0.86231">
        <ele>1572.85</ele>
        <time>2018-11-11T13:31:49Z</time>
      </trkpt>
      <trkpt lat="42.95809" lon="0.86218">
        <ele>1572.85</ele>
        <time>2018-11-11T13:32:00Z</time>
      </trkpt>
      <trkpt lat="42.95809" lon="0.86204">
        <ele>1570.93</ele>
        <time>2018-11-11T13:32:11Z</time>
      </trkpt>
      <trkpt lat="42.95806" lon="0.86192">
        <ele>1569.97</ele>
        <time>2018-11-11T13:32:20Z</time>
      </trkpt>
      <trkpt lat="42.95801" lon="0.86182">
        <ele>1569.01</ele>
        <time>2018-11-11T13:32:30Z</time>
      </trkpt>
      <trkpt lat="42.95796" lon="0.86171">
        <ele>1569.49</ele>
        <time>2018-11-11T13:32:41Z</time>
      </trkpt>
      <trkpt lat="42.95793" lon="0.86159">
        <ele>1569.97</ele>
        <time>2018-11-11T13:32:51Z</time>
      </trkpt>
      <trkpt lat="42.9579" lon="0.86146">
        <ele>1569.01</ele>
        <time>2018-11-11T13:33:00Z</time>
      </trkpt>
      <trkpt lat="42.95789" lon="0.86134">
        <ele>1569.97</ele>
        <time>2018-11-11T13:33:10Z</time>
      </trkpt>
      <trkpt lat="42.95786" lon="0.86123">
        <ele>1569.49</ele>
        <time>2018-11-11T13:33:20Z</time>
      </trkpt>
      <trkpt lat="42.95787" lon="0.86109">
        <ele>1569.97</ele>
        <time>2018-11-11T13:33:31Z</time>
      </trkpt>
      <trkpt lat="42.95789" lon="0.86095">
        <ele>1570.45</ele>
        <time>2018-11-11T13:33:44Z</time>
      </trkpt>
      <trkpt lat="42.9579" lon="0.86084">
        <ele>1570.93</ele>
        <time>2018-11-11T13:33:56Z</time>
      </trkpt>
      <trkpt lat="42.9579" lon="0.86072">
        <ele>1569.97</ele>
        <time>2018-11-11T13:34:07Z</time>
      </trkpt>
      <trkpt lat="42.95786" lon="0.8606">
        <ele>1569.49</ele>
        <time>2018-11-11T13:34:18Z</time>
      </trkpt>
      <trkpt lat="42.95783" lon="0.86049">
        <ele>1568.53</ele>
        <time>2018-11-11T13:34:30Z</time>
      </trkpt>
      <trkpt lat="42.95783" lon="0.86037">
        <ele>1566.61</ele>
        <time>2018-11-11T13:34:41Z</time>
      </trkpt>
      <trkpt lat="42.9578" lon="0.86024">
        <ele>1565.64</ele>
        <time>2018-11-11T13:34:54Z</time>
      </trkpt>
      <trkpt lat="42.95778" lon="0.86012">
        <ele>1563.72</ele>
        <time>2018-11-11T13:35:06Z</time>
      </trkpt>
      <trkpt lat="42.95774" lon="0.85999">
        <ele>1560.36</ele>
        <time>2018-11-11T13:35:19Z</time>
      </trkpt>
      <trkpt lat="42.95773" lon="0.85989">
        <ele>1558.43</ele>
        <time>2018-11-11T13:35:30Z</time>
      </trkpt>
      <trkpt lat="42.95765" lon="0.85983">
        <ele>1557.47</ele>
        <time>2018-11-11T13:35:46Z</time>
      </trkpt>
      <trkpt lat="42.9576" lon="0.85973">
        <ele>1555.55</ele>
        <time>2018-11-11T13:35:57Z</time>
      </trkpt>
      <trkpt lat="42.95757" lon="0.85957">
        <ele>1551.71</ele>
        <time>2018-11-11T13:36:09Z</time>
      </trkpt>
      <trkpt lat="42.95755" lon="0.85945">
        <ele>1550.26</ele>
        <time>2018-11-11T13:36:23Z</time>
      </trkpt>
      <trkpt lat="42.95749" lon="0.85936">
        <ele>1547.86</ele>
        <time>2018-11-11T13:36:37Z</time>
      </trkpt>
      <trkpt lat="42.95744" lon="0.85927">
        <ele>1544.5</ele>
        <time>2018-11-11T13:36:50Z</time>
      </trkpt>
      <trkpt lat="42.9574" lon="0.85914">
        <ele>1540.17</ele>
        <time>2018-11-11T13:37:02Z</time>
      </trkpt>
      <trkpt lat="42.95735" lon="0.85903">
        <ele>1537.77</ele>
        <time>2018-11-11T13:37:11Z</time>
      </trkpt>
      <trkpt lat="42.95729" lon="0.85892">
        <ele>1537.29</ele>
        <time>2018-11-11T13:37:25Z</time>
      </trkpt>
      <trkpt lat="42.95723" lon="0.85886">
        <ele>1533.44</ele>
        <time>2018-11-11T13:37:37Z</time>
      </trkpt>
      <trkpt lat="42.95717" lon="0.8588">
        <ele>1530.08</ele>
        <time>2018-11-11T13:37:49Z</time>
      </trkpt>
      <trkpt lat="42.95715" lon="0.85866">
        <ele>1527.67</ele>
        <time>2018-11-11T13:37:59Z</time>
      </trkpt>
      <trkpt lat="42.9571" lon="0.85854">
        <ele>1525.75</ele>
        <time>2018-11-11T13:38:10Z</time>
      </trkpt>
      <trkpt lat="42.95706" lon="0.85843">
        <ele>1523.83</ele>
        <time>2018-11-11T13:38:21Z</time>
      </trkpt>
      <trkpt lat="42.95704" lon="0.8583">
        <ele>1520.94</ele>
        <time>2018-11-11T13:38:31Z</time>
      </trkpt>
      <trkpt lat="42.95702" lon="0.85817">
        <ele>1519.5</ele>
        <time>2018-11-11T13:38:41Z</time>
      </trkpt>
      <trkpt lat="42.95699" lon="0.85806">
        <ele>1517.58</ele>
        <time>2018-11-11T13:38:51Z</time>
      </trkpt>
      <trkpt lat="42.95692" lon="0.85796">
        <ele>1516.14</ele>
        <time>2018-11-11T13:39:01Z</time>
      </trkpt>
      <trkpt lat="42.95687" lon="0.85785">
        <ele>1514.21</ele>
        <time>2018-11-11T13:39:10Z</time>
      </trkpt>
      <trkpt lat="42.95684" lon="0.85771">
        <ele>1512.77</ele>
        <time>2018-11-11T13:39:20Z</time>
      </trkpt>
      <trkpt lat="42.9568" lon="0.8576">
        <ele>1512.29</ele>
        <time>2018-11-11T13:39:28Z</time>
      </trkpt>
      <trkpt lat="42.95674" lon="0.85749">
        <ele>1511.81</ele>
        <time>2018-11-11T13:39:37Z</time>
      </trkpt>
      <trkpt lat="42.95668" lon="0.85739">
        <ele>1509.89</ele>
        <time>2018-11-11T13:39:45Z</time>
      </trkpt>
      <trkpt lat="42.95665" lon="0.85725">
        <ele>1507.97</ele>
        <time>2018-11-11T13:39:54Z</time>
      </trkpt>
      <trkpt lat="42.9566" lon="0.85716">
        <ele>1505.56</ele>
        <time>2018-11-11T13:40:03Z</time>
      </trkpt>
      <trkpt lat="42.95655" lon="0.85707">
        <ele>1505.08</ele>
        <time>2018-11-11T13:40:13Z</time>
      </trkpt>
      <trkpt lat="42.95652" lon="0.85695">
        <ele>1503.64</ele>
        <time>2018-11-11T13:40:28Z</time>
      </trkpt>
      <trkpt lat="42.95648" lon="0.85685">
        <ele>1503.64</ele>
        <time>2018-11-11T13:40:37Z</time>
      </trkpt>
      <trkpt lat="42.95642" lon="0.85676">
        <ele>1504.12</ele>
        <time>2018-11-11T13:40:47Z</time>
      </trkpt>
      <trkpt lat="42.95635" lon="0.85667">
        <ele>1505.56</ele>
        <time>2018-11-11T13:40:59Z</time>
      </trkpt>
      <trkpt lat="42.9563" lon="0.85655">
        <ele>1507</ele>
        <time>2018-11-11T13:41:10Z</time>
      </trkpt>
      <trkpt lat="42.95625" lon="0.85644">
        <ele>1509.41</ele>
        <time>2018-11-11T13:41:21Z</time>
      </trkpt>
      <trkpt lat="42.95619" lon="0.85639">
        <ele>1509.89</ele>
        <time>2018-11-11T13:43:13Z</time>
      </trkpt>
      <trkpt lat="42.95615" lon="0.85633">
        <ele>1510.85</ele>
        <time>2018-11-11T13:44:28Z</time>
      </trkpt>
      <trkpt lat="42.95611" lon="0.85623">
        <ele>1513.25</ele>
        <time>2018-11-11T13:44:39Z</time>
      </trkpt>
      <trkpt lat="42.95602" lon="0.85617">
        <ele>1515.18</ele>
        <time>2018-11-11T13:44:52Z</time>
      </trkpt>
      <trkpt lat="42.95598" lon="0.85608">
        <ele>1518.06</ele>
        <time>2018-11-11T13:45:05Z</time>
      </trkpt>
      <trkpt lat="42.95593" lon="0.85597">
        <ele>1519.98</ele>
        <time>2018-11-11T13:45:20Z</time>
      </trkpt>
      <trkpt lat="42.95587" lon="0.85588">
        <ele>1521.9</ele>
        <time>2018-11-11T13:45:33Z</time>
      </trkpt>
      <trkpt lat="42.95582" lon="0.8558">
        <ele>1524.31</ele>
        <time>2018-11-11T13:45:46Z</time>
      </trkpt>
      <trkpt lat="42.95576" lon="0.85572">
        <ele>1526.71</ele>
        <time>2018-11-11T13:46:02Z</time>
      </trkpt>
      <trkpt lat="42.95571" lon="0.85564">
        <ele>1529.11</ele>
        <time>2018-11-11T13:46:14Z</time>
      </trkpt>
      <trkpt lat="42.95565" lon="0.85554">
        <ele>1532.48</ele>
        <time>2018-11-11T13:46:30Z</time>
      </trkpt>
      <trkpt lat="42.95562" lon="0.85542">
        <ele>1535.36</ele>
        <time>2018-11-11T13:46:45Z</time>
      </trkpt>
      <trkpt lat="42.95567" lon="0.85532">
        <ele>1537.29</ele>
        <time>2018-11-11T13:46:58Z</time>
      </trkpt>
      <trkpt lat="42.95573" lon="0.8552">
        <ele>1538.25</ele>
        <time>2018-11-11T13:47:12Z</time>
      </trkpt>
      <trkpt lat="42.95581" lon="0.85515">
        <ele>1539.69</ele>
        <time>2018-11-11T13:47:31Z</time>
      </trkpt>
      <trkpt lat="42.95585" lon="0.85501">
        <ele>1542.09</ele>
        <time>2018-11-11T13:47:45Z</time>
      </trkpt>
      <trkpt lat="42.95592" lon="0.85491">
        <ele>1544.5</ele>
        <time>2018-11-11T13:48:06Z</time>
      </trkpt>
      <trkpt lat="42.95594" lon="0.85478">
        <ele>1548.34</ele>
        <time>2018-11-11T13:48:26Z</time>
      </trkpt>
      <trkpt lat="42.95595" lon="0.85466">
        <ele>1550.74</ele>
        <time>2018-11-11T13:48:43Z</time>
      </trkpt>
      <trkpt lat="42.95601" lon="0.85459">
        <ele>1553.15</ele>
        <time>2018-11-11T13:49:01Z</time>
      </trkpt>
      <trkpt lat="42.95607" lon="0.85446">
        <ele>1555.07</ele>
        <time>2018-11-11T13:49:35Z</time>
      </trkpt>
      <trkpt lat="42.95598" lon="0.85438">
        <ele>1552.67</ele>
        <time>2018-11-11T13:50:06Z</time>
      </trkpt>
      <trkpt lat="42.95596" lon="0.85424">
        <ele>1550.26</ele>
        <time>2018-11-11T13:50:26Z</time>
      </trkpt>
      <trkpt lat="42.95603" lon="0.85436">
        <ele>1552.19</ele>
        <time>2018-11-11T13:51:06Z</time>
      </trkpt>
      <trkpt lat="42.95592" lon="0.8544">
        <ele>1550.74</ele>
        <time>2018-11-11T13:51:51Z</time>
      </trkpt>
      <trkpt lat="42.95592" lon="0.85428">
        <ele>1550.74</ele>
        <time>2018-11-11T13:57:32Z</time>
      </trkpt>
      <trkpt lat="42.95591" lon="0.85412">
        <ele>1548.34</ele>
        <time>2018-11-11T13:57:50Z</time>
      </trkpt>
      <trkpt lat="42.95582" lon="0.85401">
        <ele>1544.98</ele>
        <time>2018-11-11T13:58:08Z</time>
      </trkpt>
      <trkpt lat="42.95576" lon="0.85386">
        <ele>1542.09</ele>
        <time>2018-11-11T13:58:24Z</time>
      </trkpt>
      <trkpt lat="42.95572" lon="0.85375">
        <ele>1539.21</ele>
        <time>2018-11-11T13:58:40Z</time>
      </trkpt>
      <trkpt lat="42.95573" lon="0.85377">
        <ele>1538.25</ele>
        <time>2018-11-11T14:01:59Z</time>
      </trkpt>
      <trkpt lat="42.95572" lon="0.85361">
        <ele>1535.36</ele>
        <time>2018-11-11T14:02:28Z</time>
      </trkpt>
      <trkpt lat="42.95569" lon="0.85351">
        <ele>1532.96</ele>
        <time>2018-11-11T14:02:42Z</time>
      </trkpt>
      <trkpt lat="42.95569" lon="0.85339">
        <ele>1530.56</ele>
        <time>2018-11-11T14:03:13Z</time>
      </trkpt>
      <trkpt lat="42.95567" lon="0.85332">
        <ele>1530.08</ele>
        <time>2018-11-11T14:04:00Z</time>
      </trkpt>
      <trkpt lat="42.95568" lon="0.85317">
        <ele>1527.67</ele>
        <time>2018-11-11T14:04:14Z</time>
      </trkpt>
      <trkpt lat="42.9557" lon="0.85304">
        <ele>1525.27</ele>
        <time>2018-11-11T14:04:24Z</time>
      </trkpt>
      <trkpt lat="42.95573" lon="0.85291">
        <ele>1523.35</ele>
        <time>2018-11-11T14:04:34Z</time>
      </trkpt>
      <trkpt lat="42.95571" lon="0.85277">
        <ele>1523.35</ele>
        <time>2018-11-11T14:04:44Z</time>
      </trkpt>
      <trkpt lat="42.95573" lon="0.85263">
        <ele>1522.39</ele>
        <time>2018-11-11T14:04:54Z</time>
      </trkpt>
      <trkpt lat="42.95567" lon="0.85251">
        <ele>1520.94</ele>
        <time>2018-11-11T14:05:12Z</time>
      </trkpt>
      <trkpt lat="42.95565" lon="0.85238">
        <ele>1518.54</ele>
        <time>2018-11-11T14:05:23Z</time>
      </trkpt>
      <trkpt lat="42.95567" lon="0.85223">
        <ele>1517.58</ele>
        <time>2018-11-11T14:05:35Z</time>
      </trkpt>
      <trkpt lat="42.9557" lon="0.85208">
        <ele>1515.66</ele>
        <time>2018-11-11T14:05:47Z</time>
      </trkpt>
      <trkpt lat="42.95574" lon="0.85196">
        <ele>1514.69</ele>
        <time>2018-11-11T14:05:57Z</time>
      </trkpt>
      <trkpt lat="42.9558" lon="0.85186">
        <ele>1513.73</ele>
        <time>2018-11-11T14:06:07Z</time>
      </trkpt>
      <trkpt lat="42.95579" lon="0.85176">
        <ele>1511.33</ele>
        <time>2018-11-11T14:06:19Z</time>
      </trkpt>
      <trkpt lat="42.95571" lon="0.85168">
        <ele>1507.48</ele>
        <time>2018-11-11T14:06:35Z</time>
      </trkpt>
      <trkpt lat="42.95563" lon="0.8516">
        <ele>1504.12</ele>
        <time>2018-11-11T14:06:50Z</time>
      </trkpt>
      <trkpt lat="42.95563" lon="0.8515">
        <ele>1499.31</ele>
        <time>2018-11-11T14:07:11Z</time>
      </trkpt>
      <trkpt lat="42.95574" lon="0.85142">
        <ele>1494.51</ele>
        <time>2018-11-11T14:07:37Z</time>
      </trkpt>
      <trkpt lat="42.95583" lon="0.8514">
        <ele>1494.03</ele>
        <time>2018-11-11T14:07:50Z</time>
      </trkpt>
      <trkpt lat="42.95592" lon="0.85138">
        <ele>1494.03</ele>
        <time>2018-11-11T14:07:59Z</time>
      </trkpt>
      <trkpt lat="42.95588" lon="0.85126">
        <ele>1494.03</ele>
        <time>2018-11-11T14:08:09Z</time>
      </trkpt>
      <trkpt lat="42.95588" lon="0.85114">
        <ele>1494.51</ele>
        <time>2018-11-11T14:08:21Z</time>
      </trkpt>
      <trkpt lat="42.95592" lon="0.85103">
        <ele>1494.03</ele>
        <time>2018-11-11T14:08:38Z</time>
      </trkpt>
      <trkpt lat="42.95598" lon="0.85092">
        <ele>1492.1</ele>
        <time>2018-11-11T14:08:52Z</time>
      </trkpt>
      <trkpt lat="42.95604" lon="0.85081">
        <ele>1490.66</ele>
        <time>2018-11-11T14:09:04Z</time>
      </trkpt>
      <trkpt lat="42.95607" lon="0.85069">
        <ele>1491.14</ele>
        <time>2018-11-11T14:09:17Z</time>
      </trkpt>
      <trkpt lat="42.95613" lon="0.85056">
        <ele>1492.1</ele>
        <time>2018-11-11T14:09:30Z</time>
      </trkpt>
      <trkpt lat="42.95615" lon="0.85044">
        <ele>1490.66</ele>
        <time>2018-11-11T14:09:39Z</time>
      </trkpt>
      <trkpt lat="42.95617" lon="0.85032">
        <ele>1490.18</ele>
        <time>2018-11-11T14:09:50Z</time>
      </trkpt>
      <trkpt lat="42.95621" lon="0.8502">
        <ele>1490.18</ele>
        <time>2018-11-11T14:09:59Z</time>
      </trkpt>
      <trkpt lat="42.95624" lon="0.85007">
        <ele>1489.7</ele>
        <time>2018-11-11T14:10:10Z</time>
      </trkpt>
      <trkpt lat="42.95627" lon="0.84995">
        <ele>1490.18</ele>
        <time>2018-11-11T14:10:19Z</time>
      </trkpt>
      <trkpt lat="42.95629" lon="0.84984">
        <ele>1490.66</ele>
        <time>2018-11-11T14:10:32Z</time>
      </trkpt>
      <trkpt lat="42.9563" lon="0.8497">
        <ele>1490.66</ele>
        <time>2018-11-11T14:10:43Z</time>
      </trkpt>
      <trkpt lat="42.95631" lon="0.84957">
        <ele>1492.1</ele>
        <time>2018-11-11T14:10:54Z</time>
      </trkpt>
      <trkpt lat="42.95632" lon="0.84944">
        <ele>1493.06</ele>
        <time>2018-11-11T14:11:08Z</time>
      </trkpt>
      <trkpt lat="42.95635" lon="0.84931">
        <ele>1492.1</ele>
        <time>2018-11-11T14:11:19Z</time>
      </trkpt>
      <trkpt lat="42.95636" lon="0.84918">
        <ele>1489.22</ele>
        <time>2018-11-11T14:11:32Z</time>
      </trkpt>
      <trkpt lat="42.95639" lon="0.84903">
        <ele>1484.89</ele>
        <time>2018-11-11T14:11:50Z</time>
      </trkpt>
      <trkpt lat="42.95646" lon="0.84893">
        <ele>1481.53</ele>
        <time>2018-11-11T14:12:09Z</time>
      </trkpt>
      <trkpt lat="42.95646" lon="0.84882">
        <ele>1478.65</ele>
        <time>2018-11-11T14:12:46Z</time>
      </trkpt>
      <trkpt lat="42.95644" lon="0.84879">
        <ele>1477.2</ele>
        <time>2018-11-11T14:14:13Z</time>
      </trkpt>
      <trkpt lat="42.95634" lon="0.84874">
        <ele>1474.8</ele>
        <time>2018-11-11T14:14:35Z</time>
      </trkpt>
      <trkpt lat="42.95624" lon="0.84872">
        <ele>1472.88</ele>
        <time>2018-11-11T14:14:51Z</time>
      </trkpt>
      <trkpt lat="42.95615" lon="0.84874">
        <ele>1470.95</ele>
        <time>2018-11-11T14:15:09Z</time>
      </trkpt>
      <trkpt lat="42.95606" lon="0.84866">
        <ele>1466.63</ele>
        <time>2018-11-11T14:15:24Z</time>
      </trkpt>
      <trkpt lat="42.95597" lon="0.84861">
        <ele>1464.23</ele>
        <time>2018-11-11T14:15:43Z</time>
      </trkpt>
      <trkpt lat="42.95589" lon="0.84861">
        <ele>1459.42</ele>
        <time>2018-11-11T14:15:57Z</time>
      </trkpt>
      <trkpt lat="42.95582" lon="0.84858">
        <ele>1455.09</ele>
        <time>2018-11-11T14:16:08Z</time>
      </trkpt>
      <trkpt lat="42.95573" lon="0.84857">
        <ele>1451.73</ele>
        <time>2018-11-11T14:16:20Z</time>
      </trkpt>
      <trkpt lat="42.95564" lon="0.84857">
        <ele>1447.4</ele>
        <time>2018-11-11T14:16:32Z</time>
      </trkpt>
      <trkpt lat="42.95558" lon="0.84863">
        <ele>1444.04</ele>
        <time>2018-11-11T14:16:44Z</time>
      </trkpt>
      <trkpt lat="42.95552" lon="0.84866">
        <ele>1440.67</ele>
        <time>2018-11-11T14:17:09Z</time>
      </trkpt>
      <trkpt lat="42.95541" lon="0.8487">
        <ele>1437.79</ele>
        <time>2018-11-11T14:17:22Z</time>
      </trkpt>
      <trkpt lat="42.95534" lon="0.84879">
        <ele>1435.39</ele>
        <time>2018-11-11T14:17:35Z</time>
      </trkpt>
      <trkpt lat="42.95523" lon="0.84879">
        <ele>1432.98</ele>
        <time>2018-11-11T14:17:47Z</time>
      </trkpt>
      <trkpt lat="42.95514" lon="0.84881">
        <ele>1431.06</ele>
        <time>2018-11-11T14:17:58Z</time>
      </trkpt>
      <trkpt lat="42.95504" lon="0.84882">
        <ele>1430.1</ele>
        <time>2018-11-11T14:18:08Z</time>
      </trkpt>
      <trkpt lat="42.95494" lon="0.84882">
        <ele>1428.66</ele>
        <time>2018-11-11T14:18:18Z</time>
      </trkpt>
      <trkpt lat="42.95485" lon="0.84881">
        <ele>1426.25</ele>
        <time>2018-11-11T14:18:30Z</time>
      </trkpt>
      <trkpt lat="42.95476" lon="0.84877">
        <ele>1424.81</ele>
        <time>2018-11-11T14:18:41Z</time>
      </trkpt>
      <trkpt lat="42.95467" lon="0.84876">
        <ele>1422.89</ele>
        <time>2018-11-11T14:18:51Z</time>
      </trkpt>
      <trkpt lat="42.95458" lon="0.84872">
        <ele>1420.97</ele>
        <time>2018-11-11T14:19:02Z</time>
      </trkpt>
      <trkpt lat="42.95448" lon="0.84867">
        <ele>1419.04</ele>
        <time>2018-11-11T14:19:13Z</time>
      </trkpt>
      <trkpt lat="42.9544" lon="0.84863">
        <ele>1418.56</ele>
        <time>2018-11-11T14:19:31Z</time>
      </trkpt>
      <trkpt lat="42.95433" lon="0.84864">
        <ele>1416.64</ele>
        <time>2018-11-11T14:20:11Z</time>
      </trkpt>
      <trkpt lat="42.95424" lon="0.84855">
        <ele>1414.24</ele>
        <time>2018-11-11T14:20:28Z</time>
      </trkpt>
      <trkpt lat="42.95413" lon="0.84851">
        <ele>1412.31</ele>
        <time>2018-11-11T14:20:42Z</time>
      </trkpt>
      <trkpt lat="42.95407" lon="0.8484">
        <ele>1408.47</ele>
        <time>2018-11-11T14:20:58Z</time>
      </trkpt>
      <trkpt lat="42.95395" lon="0.84835">
        <ele>1405.1</ele>
        <time>2018-11-11T14:21:12Z</time>
      </trkpt>
      <trkpt lat="42.95385" lon="0.84831">
        <ele>1402.22</ele>
        <time>2018-11-11T14:21:25Z</time>
      </trkpt>
      <trkpt lat="42.95378" lon="0.8482">
        <ele>1396.45</ele>
        <time>2018-11-11T14:21:49Z</time>
      </trkpt>
      <trkpt lat="42.95361" lon="0.84794">
        <ele>1386.36</ele>
        <time>2018-11-11T14:22:26Z</time>
      </trkpt>
      <trkpt lat="42.95347" lon="0.84799">
        <ele>1381.07</ele>
        <time>2018-11-11T14:22:58Z</time>
      </trkpt>
      <trkpt lat="42.95325" lon="0.84774">
        <ele>1373.38</ele>
        <time>2018-11-11T14:23:31Z</time>
      </trkpt>
      <trkpt lat="42.95308" lon="0.84764">
        <ele>1365.69</ele>
        <time>2018-11-11T14:24:19Z</time>
      </trkpt>
      <trkpt lat="42.95288" lon="0.84753">
        <ele>1359.44</ele>
        <time>2018-11-11T14:24:54Z</time>
      </trkpt>
      <trkpt lat="42.95272" lon="0.84752">
        <ele>1354.15</ele>
        <time>2018-11-11T14:25:27Z</time>
      </trkpt>
      <trkpt lat="42.95258" lon="0.84756">
        <ele>1351.27</ele>
        <time>2018-11-11T14:25:50Z</time>
      </trkpt>
      <trkpt lat="42.95244" lon="0.84757">
        <ele>1350.31</ele>
        <time>2018-11-11T14:26:12Z</time>
      </trkpt>
      <trkpt lat="42.95229" lon="0.84768">
        <ele>1344.06</ele>
        <time>2018-11-11T14:27:01Z</time>
      </trkpt>
      <trkpt lat="42.95214" lon="0.84774">
        <ele>1341.18</ele>
        <time>2018-11-11T14:27:34Z</time>
      </trkpt>
      <trkpt lat="42.95202" lon="0.84784">
        <ele>1338.29</ele>
        <time>2018-11-11T14:28:12Z</time>
      </trkpt>
      <trkpt lat="42.95193" lon="0.84792">
        <ele>1338.29</ele>
        <time>2018-11-11T14:28:47Z</time>
      </trkpt>
      <trkpt lat="42.9517" lon="0.84805">
        <ele>1332.52</ele>
        <time>2018-11-11T14:29:54Z</time>
      </trkpt>
      <trkpt lat="42.9515" lon="0.84817">
        <ele>1324.83</ele>
        <time>2018-11-11T14:30:43Z</time>
      </trkpt>
      <trkpt lat="42.95138" lon="0.8485">
        <ele>1318.1</ele>
        <time>2018-11-11T14:31:42Z</time>
      </trkpt>
      <trkpt lat="42.95127" lon="0.84886">
        <ele>1317.62</ele>
        <time>2018-11-11T14:32:14Z</time>
      </trkpt>
      <trkpt lat="42.95123" lon="0.84897">
        <ele>1317.62</ele>
        <time>2018-11-11T14:32:41Z</time>
      </trkpt>
      <trkpt lat="42.95118" lon="0.84917">
        <ele>1315.7</ele>
        <time>2018-11-11T14:33:03Z</time>
      </trkpt>
      <trkpt lat="42.95114" lon="0.84938">
        <ele>1313.78</ele>
        <time>2018-11-11T14:33:28Z</time>
      </trkpt>
      <trkpt lat="42.95115" lon="0.8496">
        <ele>1311.86</ele>
        <time>2018-11-11T14:33:45Z</time>
      </trkpt>
      <trkpt lat="42.95105" lon="0.84981">
        <ele>1309.45</ele>
        <time>2018-11-11T14:34:11Z</time>
      </trkpt>
      <trkpt lat="42.95103" lon="0.8501">
        <ele>1307.05</ele>
        <time>2018-11-11T14:34:37Z</time>
      </trkpt>
      <trkpt lat="42.95099" lon="0.85035">
        <ele>1303.2</ele>
        <time>2018-11-11T14:35:06Z</time>
      </trkpt>
      <trkpt lat="42.95099" lon="0.85042">
        <ele>1300.8</ele>
        <time>2018-11-11T14:35:51Z</time>
      </trkpt>
      <trkpt lat="42.9509" lon="0.85075">
        <ele>1289.27</ele>
        <time>2018-11-11T14:36:29Z</time>
      </trkpt>
      <trkpt lat="42.95083" lon="0.85118">
        <ele>1280.61</ele>
        <time>2018-11-11T14:37:08Z</time>
      </trkpt>
      <trkpt lat="42.95061" lon="0.85157">
        <ele>1271</ele>
        <time>2018-11-11T14:38:01Z</time>
      </trkpt>
      <trkpt lat="42.95042" lon="0.85206">
        <ele>1264.75</ele>
        <time>2018-11-11T14:38:26Z</time>
      </trkpt>
      <trkpt lat="42.95035" lon="0.85124">
        <ele>1260.91</ele>
        <time>2018-11-11T14:38:49Z</time>
      </trkpt>
      <trkpt lat="42.95021" lon="0.85054">
        <ele>1256.58</ele>
        <time>2018-11-11T14:39:06Z</time>
      </trkpt>
      <trkpt lat="42.95015" lon="0.85045">
        <ele>1254.66</ele>
        <time>2018-11-11T14:39:14Z</time>
      </trkpt>
      <trkpt lat="42.95014" lon="0.85062">
        <ele>1254.18</ele>
        <time>2018-11-11T14:39:27Z</time>
      </trkpt>
      <trkpt lat="42.95012" lon="0.85088">
        <ele>1252.74</ele>
        <time>2018-11-11T14:39:44Z</time>
      </trkpt>
      <trkpt lat="42.95004" lon="0.85107">
        <ele>1250.33</ele>
        <time>2018-11-11T14:40:01Z</time>
      </trkpt>
      <trkpt lat="42.94999" lon="0.85124">
        <ele>1248.89</ele>
        <time>2018-11-11T14:40:16Z</time>
      </trkpt>
      <trkpt lat="42.94992" lon="0.85138">
        <ele>1246.97</ele>
        <time>2018-11-11T14:40:35Z</time>
      </trkpt>
      <trkpt lat="42.94985" lon="0.85156">
        <ele>1245.53</ele>
        <time>2018-11-11T14:41:07Z</time>
      </trkpt>
      <trkpt lat="42.94992" lon="0.8515">
        <ele>1245.04</ele>
        <time>2018-11-11T14:41:54Z</time>
      </trkpt>
      <trkpt lat="42.94982" lon="0.85151">
        <ele>1243.12</ele>
        <time>2018-11-11T14:43:08Z</time>
      </trkpt>
      <trkpt lat="42.94972" lon="0.85167">
        <ele>1241.68</ele>
        <time>2018-11-11T14:43:20Z</time>
      </trkpt>
      <trkpt lat="42.94961" lon="0.85174">
        <ele>1240.24</ele>
        <time>2018-11-11T14:43:34Z</time>
      </trkpt>
      <trkpt lat="42.9495" lon="0.85179">
        <ele>1239.28</ele>
        <time>2018-11-11T14:43:44Z</time>
      </trkpt>
      <trkpt lat="42.94947" lon="0.85182">
        <ele>1237.35</ele>
        <time>2018-11-11T14:44:06Z</time>
      </trkpt>
      <trkpt lat="42.94955" lon="0.85162">
        <ele>1232.55</ele>
        <time>2018-11-11T14:44:27Z</time>
      </trkpt>
      <trkpt lat="42.9496" lon="0.8514">
        <ele>1227.26</ele>
        <time>2018-11-11T14:44:52Z</time>
      </trkpt>
      <trkpt lat="42.94949" lon="0.85141">
        <ele>1224.38</ele>
        <time>2018-11-11T14:45:13Z</time>
      </trkpt>
      <trkpt lat="42.94934" lon="0.8514">
        <ele>1221.97</ele>
        <time>2018-11-11T14:45:33Z</time>
      </trkpt>
      <trkpt lat="42.94916" lon="0.8514">
        <ele>1218.13</ele>
        <time>2018-11-11T14:45:57Z</time>
      </trkpt>
      <trkpt lat="42.94901" lon="0.85146">
        <ele>1214.28</ele>
        <time>2018-11-11T14:46:25Z</time>
      </trkpt>
      <trkpt lat="42.94886" lon="0.8515">
        <ele>1210.44</ele>
        <time>2018-11-11T14:46:48Z</time>
      </trkpt>
      <trkpt lat="42.94869" lon="0.85154">
        <ele>1207.07</ele>
        <time>2018-11-11T14:47:10Z</time>
      </trkpt>
      <trkpt lat="42.94853" lon="0.85164">
        <ele>1204.19</ele>
        <time>2018-11-11T14:47:28Z</time>
      </trkpt>
      <trkpt lat="42.9483" lon="0.85184">
        <ele>1197.94</ele>
        <time>2018-11-11T14:48:05Z</time>
      </trkpt>
      <trkpt lat="42.94796" lon="0.85241">
        <ele>1183.04</ele>
        <time>2018-11-11T14:50:03Z</time>
      </trkpt>
      <trkpt lat="42.94776" lon="0.85272">
        <ele>1172.95</ele>
        <time>2018-11-11T14:50:47Z</time>
      </trkpt>
      <trkpt lat="42.94758" lon="0.85297">
        <ele>1161.41</ele>
        <time>2018-11-11T14:51:47Z</time>
      </trkpt>
      <trkpt lat="42.94751" lon="0.85316">
        <ele>1153.24</ele>
        <time>2018-11-11T14:52:28Z</time>
      </trkpt>
      <trkpt lat="42.94744" lon="0.85335">
        <ele>1145.07</ele>
        <time>2018-11-11T14:53:19Z</time>
      </trkpt>
      <trkpt lat="42.94723" lon="0.85349">
        <ele>1142.66</ele>
        <time>2018-11-11T14:53:58Z</time>
      </trkpt>
      <trkpt lat="42.94708" lon="0.85367">
        <ele>1138.34</ele>
        <time>2018-11-11T14:54:30Z</time>
      </trkpt>
      <trkpt lat="42.94694" lon="0.85382">
        <ele>1131.13</ele>
        <time>2018-11-11T14:55:02Z</time>
      </trkpt>
      <trkpt lat="42.9468" lon="0.85391">
        <ele>1125.84</ele>
        <time>2018-11-11T14:55:28Z</time>
      </trkpt>
      <trkpt lat="42.9467" lon="0.85397">
        <ele>1120.55</ele>
        <time>2018-11-11T14:55:56Z</time>
      </trkpt>
      <trkpt lat="42.94662" lon="0.85408">
        <ele>1116.71</ele>
        <time>2018-11-11T14:56:24Z</time>
      </trkpt>
      <trkpt lat="42.94636" lon="0.85399">
        <ele>1110.46</ele>
        <time>2018-11-11T14:56:59Z</time>
      </trkpt>
      <trkpt lat="42.94616" lon="0.85394">
        <ele>1105.65</ele>
        <time>2018-11-11T14:57:22Z</time>
      </trkpt>
      <trkpt lat="42.94599" lon="0.8539">
        <ele>1102.77</ele>
        <time>2018-11-11T14:57:44Z</time>
      </trkpt>
      <trkpt lat="42.94582" lon="0.85385">
        <ele>1098.44</ele>
        <time>2018-11-11T14:58:07Z</time>
      </trkpt>
      <trkpt lat="42.94567" lon="0.85382">
        <ele>1095.56</ele>
        <time>2018-11-11T14:58:25Z</time>
      </trkpt>
      <trkpt lat="42.94553" lon="0.85381">
        <ele>1092.68</ele>
        <time>2018-11-11T14:58:46Z</time>
      </trkpt>
      <trkpt lat="42.94541" lon="0.85383">
        <ele>1090.27</ele>
        <time>2018-11-11T14:58:59Z</time>
      </trkpt>
      <trkpt lat="42.94531" lon="0.85381">
        <ele>1088.35</ele>
        <time>2018-11-11T14:59:16Z</time>
      </trkpt>
      <trkpt lat="42.94521" lon="0.85382">
        <ele>1086.43</ele>
        <time>2018-11-11T14:59:36Z</time>
      </trkpt>
      <trkpt lat="42.9451" lon="0.85382">
        <ele>1084.99</ele>
        <time>2018-11-11T14:59:50Z</time>
      </trkpt>
      <trkpt lat="42.94497" lon="0.85385">
        <ele>1083.06</ele>
        <time>2018-11-11T15:00:04Z</time>
      </trkpt>
      <trkpt lat="42.94487" lon="0.85393">
        <ele>1081.62</ele>
        <time>2018-11-11T15:00:17Z</time>
      </trkpt>
      <trkpt lat="42.94489" lon="0.8541">
        <ele>1080.66</ele>
        <time>2018-11-11T15:00:30Z</time>
      </trkpt>
      <trkpt lat="42.94489" lon="0.85429">
        <ele>1079.7</ele>
        <time>2018-11-11T15:00:46Z</time>
      </trkpt>
      <trkpt lat="42.94491" lon="0.85442">
        <ele>1079.22</ele>
        <time>2018-11-11T15:01:03Z</time>
      </trkpt>
      <trkpt lat="42.94493" lon="0.85452">
        <ele>1078.26</ele>
        <time>2018-11-11T15:02:20Z</time>
      </trkpt>
    </trkseg>
  </trk>
</gpx>